<?xml version="1.0" encoding="UTF-8" standalone="no" ?>
<gpx xmlns="http://www.topografix.com/GPX/1/1" xmlns:xsi="http://www.w3.org/2001/XMLSchema-instance" xsi:schemaLocation="http://www.topografix.com/GPX/1/1 http://www.topografix.com/GPX/1/1/gpx.xsd" version="1.1" creator="VisuGPX - https://www.visugpx.com">
  <metadata>
    <name>montées sur le lac de bonlieu</name>
    <desc><![CDATA[Première partie sur GR 5 (erreur) puis suivi de la route qui mène au belvédère. Ensuite 2e erreur et retour. 
DG]]></desc>
  </metadata>
  <trk>
    <name><![CDATA[2011-08-17T08:02:25Z]]></name>
    <trkseg>
      <trkpt lat="46.59814" lon="5.86372">
        <ele>788.418457</ele>
        <time>2011-08-17T08:02:25Z</time>
      </trkpt>
      <trkpt lat="46.59813" lon="5.86372">
        <ele>788.418457</ele>
        <time>2011-08-17T08:02:26Z</time>
      </trkpt>
      <trkpt lat="46.59801" lon="5.86376">
        <ele>788.8991699</ele>
        <time>2011-08-17T08:02:32Z</time>
      </trkpt>
      <trkpt lat="46.59788" lon="5.86382">
        <ele>789.3796387</ele>
        <time>2011-08-17T08:02:37Z</time>
      </trkpt>
      <trkpt lat="46.59772" lon="5.86389">
        <ele>788.8991699</ele>
        <time>2011-08-17T08:02:43Z</time>
      </trkpt>
      <trkpt lat="46.59757" lon="5.86392">
        <ele>788.418457</ele>
        <time>2011-08-17T08:02:48Z</time>
      </trkpt>
      <trkpt lat="46.59745" lon="5.86397">
        <ele>788.418457</ele>
        <time>2011-08-17T08:02:52Z</time>
      </trkpt>
      <trkpt lat="46.5973" lon="5.86401">
        <ele>788.8991699</ele>
        <time>2011-08-17T08:02:58Z</time>
      </trkpt>
      <trkpt lat="46.59719" lon="5.86407">
        <ele>790.3410645</ele>
        <time>2011-08-17T08:03:03Z</time>
      </trkpt>
      <trkpt lat="46.5971" lon="5.86413">
        <ele>792.7443848</ele>
        <time>2011-08-17T08:03:07Z</time>
      </trkpt>
      <trkpt lat="46.59697" lon="5.86416">
        <ele>794.666748</ele>
        <time>2011-08-17T08:03:13Z</time>
      </trkpt>
      <trkpt lat="46.59688" lon="5.86422">
        <ele>794.1862793</ele>
        <time>2011-08-17T08:03:17Z</time>
      </trkpt>
      <trkpt lat="46.5968" lon="5.86428">
        <ele>792.2636719</ele>
        <time>2011-08-17T08:03:21Z</time>
      </trkpt>
      <trkpt lat="46.59673" lon="5.86438">
        <ele>790.3410645</ele>
        <time>2011-08-17T08:03:25Z</time>
      </trkpt>
      <trkpt lat="46.59667" lon="5.86462">
        <ele>788.418457</ele>
        <time>2011-08-17T08:03:32Z</time>
      </trkpt>
      <trkpt lat="46.59666" lon="5.86486">
        <ele>789.8603516</ele>
        <time>2011-08-17T08:03:38Z</time>
      </trkpt>
      <trkpt lat="46.59665" lon="5.86508">
        <ele>790.8215332</ele>
        <time>2011-08-17T08:03:44Z</time>
      </trkpt>
      <trkpt lat="46.59664" lon="5.86528">
        <ele>794.1862793</ele>
        <time>2011-08-17T08:03:50Z</time>
      </trkpt>
      <trkpt lat="46.59662" lon="5.86543">
        <ele>794.666748</ele>
        <time>2011-08-17T08:03:55Z</time>
      </trkpt>
      <trkpt lat="46.59659" lon="5.86558">
        <ele>795.1474609</ele>
        <time>2011-08-17T08:04:00Z</time>
      </trkpt>
      <trkpt lat="46.59655" lon="5.86573">
        <ele>795.1474609</ele>
        <time>2011-08-17T08:04:05Z</time>
      </trkpt>
      <trkpt lat="46.5965" lon="5.86585">
        <ele>794.666748</ele>
        <time>2011-08-17T08:04:10Z</time>
      </trkpt>
      <trkpt lat="46.59645" lon="5.86599">
        <ele>796.5898438</ele>
        <time>2011-08-17T08:04:15Z</time>
      </trkpt>
      <trkpt lat="46.59642" lon="5.86613">
        <ele>797.5510254</ele>
        <time>2011-08-17T08:04:20Z</time>
      </trkpt>
      <trkpt lat="46.5964" lon="5.86624">
        <ele>797.5510254</ele>
        <time>2011-08-17T08:04:24Z</time>
      </trkpt>
      <trkpt lat="46.59638" lon="5.86639">
        <ele>797.0703125</ele>
        <time>2011-08-17T08:04:29Z</time>
      </trkpt>
      <trkpt lat="46.59636" lon="5.86653">
        <ele>797.5510254</ele>
        <time>2011-08-17T08:04:33Z</time>
      </trkpt>
      <trkpt lat="46.59634" lon="5.86667">
        <ele>799.9543457</ele>
        <time>2011-08-17T08:04:37Z</time>
      </trkpt>
      <trkpt lat="46.59633" lon="5.86673">
        <ele>800.4350586</ele>
        <time>2011-08-17T08:04:39Z</time>
      </trkpt>
      <trkpt lat="46.59625" lon="5.86693">
        <ele>801.8769531</ele>
        <time>2011-08-17T08:04:46Z</time>
      </trkpt>
      <trkpt lat="46.59615" lon="5.86707">
        <ele>802.3574219</ele>
        <time>2011-08-17T08:04:53Z</time>
      </trkpt>
      <trkpt lat="46.59614" lon="5.86708">
        <ele>802.8381348</ele>
        <time>2011-08-17T08:04:54Z</time>
      </trkpt>
      <trkpt lat="46.59607" lon="5.8671">
        <ele>803.7995605</ele>
        <time>2011-08-17T08:04:58Z</time>
      </trkpt>
      <trkpt lat="46.59601" lon="5.86708">
        <ele>806.6833496</ele>
        <time>2011-08-17T08:05:02Z</time>
      </trkpt>
      <trkpt lat="46.59589" lon="5.86698">
        <ele>809.0866699</ele>
        <time>2011-08-17T08:05:08Z</time>
      </trkpt>
      <trkpt lat="46.59588" lon="5.86699">
        <ele>811.4899902</ele>
        <time>2011-08-17T08:05:11Z</time>
      </trkpt>
      <trkpt lat="46.5959" lon="5.86708">
        <ele>813.8933105</ele>
        <time>2011-08-17T08:05:17Z</time>
      </trkpt>
      <trkpt lat="46.59591" lon="5.86731">
        <ele>816.2966309</ele>
        <time>2011-08-17T08:05:25Z</time>
      </trkpt>
      <trkpt lat="46.59597" lon="5.86745">
        <ele>817.2580566</ele>
        <time>2011-08-17T08:05:31Z</time>
      </trkpt>
      <trkpt lat="46.59603" lon="5.86759">
        <ele>818.6999512</ele>
        <time>2011-08-17T08:05:36Z</time>
      </trkpt>
      <trkpt lat="46.59604" lon="5.86771">
        <ele>816.7773438</ele>
        <time>2011-08-17T08:05:40Z</time>
      </trkpt>
      <trkpt lat="46.59605" lon="5.86778">
        <ele>814.8547363</ele>
        <time>2011-08-17T08:05:43Z</time>
      </trkpt>
      <trkpt lat="46.59609" lon="5.86792">
        <ele>813.8933105</ele>
        <time>2011-08-17T08:05:48Z</time>
      </trkpt>
      <trkpt lat="46.5962" lon="5.86808">
        <ele>814.3740234</ele>
        <time>2011-08-17T08:05:55Z</time>
      </trkpt>
      <trkpt lat="46.59629" lon="5.86825">
        <ele>814.8547363</ele>
        <time>2011-08-17T08:06:02Z</time>
      </trkpt>
      <trkpt lat="46.5963" lon="5.86827">
        <ele>814.8547363</ele>
        <time>2011-08-17T08:06:03Z</time>
      </trkpt>
      <trkpt lat="46.59634" lon="5.86842">
        <ele>811.0092773</ele>
        <time>2011-08-17T08:06:09Z</time>
      </trkpt>
      <trkpt lat="46.59635" lon="5.86845">
        <ele>811.0092773</ele>
        <time>2011-08-17T08:06:10Z</time>
      </trkpt>
      <trkpt lat="46.59642" lon="5.86859">
        <ele>811.0092773</ele>
        <time>2011-08-17T08:06:16Z</time>
      </trkpt>
      <trkpt lat="46.59648" lon="5.86871">
        <ele>813.4128418</ele>
        <time>2011-08-17T08:06:21Z</time>
      </trkpt>
      <trkpt lat="46.59661" lon="5.86884">
        <ele>819.661377</ele>
        <time>2011-08-17T08:06:27Z</time>
      </trkpt>
      <trkpt lat="46.59662" lon="5.86894">
        <ele>814.3740234</ele>
        <time>2011-08-17T08:06:31Z</time>
      </trkpt>
      <trkpt lat="46.59668" lon="5.86911">
        <ele>812.9321289</ele>
        <time>2011-08-17T08:06:37Z</time>
      </trkpt>
      <trkpt lat="46.59675" lon="5.86922">
        <ele>814.3740234</ele>
        <time>2011-08-17T08:06:42Z</time>
      </trkpt>
      <trkpt lat="46.59674" lon="5.86937">
        <ele>811.4899902</ele>
        <time>2011-08-17T08:06:47Z</time>
      </trkpt>
      <trkpt lat="46.5968" lon="5.86954">
        <ele>811.9707031</ele>
        <time>2011-08-17T08:06:53Z</time>
      </trkpt>
      <trkpt lat="46.59684" lon="5.86958">
        <ele>813.4128418</ele>
        <time>2011-08-17T08:06:55Z</time>
      </trkpt>
      <trkpt lat="46.59689" lon="5.86967">
        <ele>809.5673828</ele>
        <time>2011-08-17T08:06:59Z</time>
      </trkpt>
      <trkpt lat="46.59691" lon="5.86974">
        <ele>809.0866699</ele>
        <time>2011-08-17T08:07:02Z</time>
      </trkpt>
      <trkpt lat="46.59692" lon="5.8699">
        <ele>809.0866699</ele>
        <time>2011-08-17T08:07:08Z</time>
      </trkpt>
      <trkpt lat="46.59695" lon="5.86996">
        <ele>808.605957</ele>
        <time>2011-08-17T08:07:10Z</time>
      </trkpt>
      <trkpt lat="46.597" lon="5.87003">
        <ele>807.6447754</ele>
        <time>2011-08-17T08:07:13Z</time>
      </trkpt>
      <trkpt lat="46.59703" lon="5.87016">
        <ele>806.2026367</ele>
        <time>2011-08-17T08:07:18Z</time>
      </trkpt>
      <trkpt lat="46.59708" lon="5.87027">
        <ele>803.3188477</ele>
        <time>2011-08-17T08:07:22Z</time>
      </trkpt>
      <trkpt lat="46.59714" lon="5.87041">
        <ele>804.2802734</ele>
        <time>2011-08-17T08:07:27Z</time>
      </trkpt>
      <trkpt lat="46.59719" lon="5.87054">
        <ele>805.722168</ele>
        <time>2011-08-17T08:07:31Z</time>
      </trkpt>
      <trkpt lat="46.59726" lon="5.87072">
        <ele>806.2026367</ele>
        <time>2011-08-17T08:07:37Z</time>
      </trkpt>
      <trkpt lat="46.5973" lon="5.87077">
        <ele>806.6833496</ele>
        <time>2011-08-17T08:07:39Z</time>
      </trkpt>
      <trkpt lat="46.59739" lon="5.87091">
        <ele>808.605957</ele>
        <time>2011-08-17T08:07:44Z</time>
      </trkpt>
      <trkpt lat="46.59742" lon="5.87101">
        <ele>808.605957</ele>
        <time>2011-08-17T08:07:47Z</time>
      </trkpt>
      <trkpt lat="46.59737" lon="5.87115">
        <ele>810.0478516</ele>
        <time>2011-08-17T08:07:52Z</time>
      </trkpt>
      <trkpt lat="46.59729" lon="5.87127">
        <ele>814.8547363</ele>
        <time>2011-08-17T08:07:57Z</time>
      </trkpt>
      <trkpt lat="46.59716" lon="5.87135">
        <ele>813.4128418</ele>
        <time>2011-08-17T08:08:03Z</time>
      </trkpt>
      <trkpt lat="46.59704" lon="5.87135">
        <ele>814.8547363</ele>
        <time>2011-08-17T08:08:08Z</time>
      </trkpt>
      <trkpt lat="46.59694" lon="5.87135">
        <ele>817.2580566</ele>
        <time>2011-08-17T08:08:13Z</time>
      </trkpt>
      <trkpt lat="46.59681" lon="5.87132">
        <ele>817.7385254</ele>
        <time>2011-08-17T08:08:18Z</time>
      </trkpt>
      <trkpt lat="46.59666" lon="5.87125">
        <ele>819.1806641</ele>
        <time>2011-08-17T08:08:24Z</time>
      </trkpt>
      <trkpt lat="46.59655" lon="5.87121">
        <ele>817.2580566</ele>
        <time>2011-08-17T08:08:29Z</time>
      </trkpt>
      <trkpt lat="46.59644" lon="5.8712">
        <ele>816.2966309</ele>
        <time>2011-08-17T08:08:34Z</time>
      </trkpt>
      <trkpt lat="46.59632" lon="5.87119">
        <ele>814.3740234</ele>
        <time>2011-08-17T08:08:39Z</time>
      </trkpt>
      <trkpt lat="46.59619" lon="5.87121">
        <ele>814.8547363</ele>
        <time>2011-08-17T08:08:44Z</time>
      </trkpt>
      <trkpt lat="46.59605" lon="5.87127">
        <ele>814.3740234</ele>
        <time>2011-08-17T08:08:50Z</time>
      </trkpt>
      <trkpt lat="46.59596" lon="5.87131">
        <ele>813.4128418</ele>
        <time>2011-08-17T08:08:54Z</time>
      </trkpt>
      <trkpt lat="46.59586" lon="5.87139">
        <ele>813.4128418</ele>
        <time>2011-08-17T08:08:59Z</time>
      </trkpt>
      <trkpt lat="46.59577" lon="5.87149">
        <ele>813.8933105</ele>
        <time>2011-08-17T08:09:03Z</time>
      </trkpt>
      <trkpt lat="46.59566" lon="5.87163">
        <ele>815.3354492</ele>
        <time>2011-08-17T08:09:09Z</time>
      </trkpt>
      <trkpt lat="46.59554" lon="5.87175">
        <ele>815.3354492</ele>
        <time>2011-08-17T08:09:15Z</time>
      </trkpt>
      <trkpt lat="46.59539" lon="5.87184">
        <ele>814.8547363</ele>
        <time>2011-08-17T08:09:21Z</time>
      </trkpt>
      <trkpt lat="46.59527" lon="5.87191">
        <ele>814.8547363</ele>
        <time>2011-08-17T08:09:26Z</time>
      </trkpt>
      <trkpt lat="46.59512" lon="5.872">
        <ele>813.4128418</ele>
        <time>2011-08-17T08:09:32Z</time>
      </trkpt>
      <trkpt lat="46.59503" lon="5.87211">
        <ele>811.4899902</ele>
        <time>2011-08-17T08:09:37Z</time>
      </trkpt>
      <trkpt lat="46.59496" lon="5.87225">
        <ele>809.5673828</ele>
        <time>2011-08-17T08:09:42Z</time>
      </trkpt>
      <trkpt lat="46.59488" lon="5.87234">
        <ele>808.605957</ele>
        <time>2011-08-17T08:09:46Z</time>
      </trkpt>
      <trkpt lat="46.59478" lon="5.87247">
        <ele>808.1254883</ele>
        <time>2011-08-17T08:09:51Z</time>
      </trkpt>
      <trkpt lat="46.59469" lon="5.8726">
        <ele>808.1254883</ele>
        <time>2011-08-17T08:09:56Z</time>
      </trkpt>
      <trkpt lat="46.59461" lon="5.8727">
        <ele>807.6447754</ele>
        <time>2011-08-17T08:10:00Z</time>
      </trkpt>
      <trkpt lat="46.59451" lon="5.87287">
        <ele>806.2026367</ele>
        <time>2011-08-17T08:10:06Z</time>
      </trkpt>
      <trkpt lat="46.59444" lon="5.87304">
        <ele>804.2802734</ele>
        <time>2011-08-17T08:10:11Z</time>
      </trkpt>
      <trkpt lat="46.59438" lon="5.87325">
        <ele>803.3188477</ele>
        <time>2011-08-17T08:10:17Z</time>
      </trkpt>
      <trkpt lat="46.59435" lon="5.87343">
        <ele>800.9155273</ele>
        <time>2011-08-17T08:10:22Z</time>
      </trkpt>
      <trkpt lat="46.59432" lon="5.87367">
        <ele>802.3574219</ele>
        <time>2011-08-17T08:10:28Z</time>
      </trkpt>
      <trkpt lat="46.59428" lon="5.87383">
        <ele>802.8381348</ele>
        <time>2011-08-17T08:10:33Z</time>
      </trkpt>
      <trkpt lat="46.59424" lon="5.87399">
        <ele>801.8769531</ele>
        <time>2011-08-17T08:10:38Z</time>
      </trkpt>
      <trkpt lat="46.5942" lon="5.87418">
        <ele>799.9543457</ele>
        <time>2011-08-17T08:10:44Z</time>
      </trkpt>
      <trkpt lat="46.59413" lon="5.87432">
        <ele>800.9155273</ele>
        <time>2011-08-17T08:10:49Z</time>
      </trkpt>
      <trkpt lat="46.59408" lon="5.87439">
        <ele>800.4350586</ele>
        <time>2011-08-17T08:10:53Z</time>
      </trkpt>
      <trkpt lat="46.59392" lon="5.87449">
        <ele>802.8381348</ele>
        <time>2011-08-17T08:11:00Z</time>
      </trkpt>
      <trkpt lat="46.59385" lon="5.8745">
        <ele>802.3574219</ele>
        <time>2011-08-17T08:11:03Z</time>
      </trkpt>
      <trkpt lat="46.59377" lon="5.87457">
        <ele>804.7607422</ele>
        <time>2011-08-17T08:11:07Z</time>
      </trkpt>
      <trkpt lat="46.59365" lon="5.87463">
        <ele>807.6447754</ele>
        <time>2011-08-17T08:11:12Z</time>
      </trkpt>
      <trkpt lat="46.59356" lon="5.87468">
        <ele>810.5285645</ele>
        <time>2011-08-17T08:11:16Z</time>
      </trkpt>
      <trkpt lat="46.59347" lon="5.87472">
        <ele>811.9707031</ele>
        <time>2011-08-17T08:11:20Z</time>
      </trkpt>
      <trkpt lat="46.59334" lon="5.87479">
        <ele>814.3740234</ele>
        <time>2011-08-17T08:11:26Z</time>
      </trkpt>
      <trkpt lat="46.59325" lon="5.87484">
        <ele>818.6999512</ele>
        <time>2011-08-17T08:11:31Z</time>
      </trkpt>
      <trkpt lat="46.59312" lon="5.87492">
        <ele>820.6225586</ele>
        <time>2011-08-17T08:11:37Z</time>
      </trkpt>
      <trkpt lat="46.59301" lon="5.87497">
        <ele>821.1032715</ele>
        <time>2011-08-17T08:11:41Z</time>
      </trkpt>
      <trkpt lat="46.59291" lon="5.87501">
        <ele>821.1032715</ele>
        <time>2011-08-17T08:11:45Z</time>
      </trkpt>
      <trkpt lat="46.59283" lon="5.87508">
        <ele>819.661377</ele>
        <time>2011-08-17T08:11:49Z</time>
      </trkpt>
      <trkpt lat="46.59272" lon="5.87518">
        <ele>819.661377</ele>
        <time>2011-08-17T08:11:55Z</time>
      </trkpt>
      <trkpt lat="46.59264" lon="5.87529">
        <ele>818.2192383</ele>
        <time>2011-08-17T08:12:00Z</time>
      </trkpt>
      <trkpt lat="46.59257" lon="5.8754">
        <ele>819.1806641</ele>
        <time>2011-08-17T08:12:05Z</time>
      </trkpt>
      <trkpt lat="46.59254" lon="5.87545">
        <ele>819.661377</ele>
        <time>2011-08-17T08:12:07Z</time>
      </trkpt>
      <trkpt lat="46.59246" lon="5.87557">
        <ele>819.661377</ele>
        <time>2011-08-17T08:12:12Z</time>
      </trkpt>
      <trkpt lat="46.59237" lon="5.87569">
        <ele>820.6225586</ele>
        <time>2011-08-17T08:12:17Z</time>
      </trkpt>
      <trkpt lat="46.59235" lon="5.8757">
        <ele>819.1806641</ele>
        <time>2011-08-17T08:12:18Z</time>
      </trkpt>
      <trkpt lat="46.59221" lon="5.87579">
        <ele>816.7773438</ele>
        <time>2011-08-17T08:12:24Z</time>
      </trkpt>
      <trkpt lat="46.59208" lon="5.87583">
        <ele>815.8161621</ele>
        <time>2011-08-17T08:12:29Z</time>
      </trkpt>
      <trkpt lat="46.59193" lon="5.87585">
        <ele>813.4128418</ele>
        <time>2011-08-17T08:12:35Z</time>
      </trkpt>
      <trkpt lat="46.59182" lon="5.87588">
        <ele>812.451416</ele>
        <time>2011-08-17T08:12:40Z</time>
      </trkpt>
      <trkpt lat="46.59169" lon="5.87593">
        <ele>812.9321289</ele>
        <time>2011-08-17T08:12:45Z</time>
      </trkpt>
      <trkpt lat="46.59156" lon="5.87604">
        <ele>810.5285645</ele>
        <time>2011-08-17T08:12:51Z</time>
      </trkpt>
      <trkpt lat="46.59147" lon="5.87618">
        <ele>808.1254883</ele>
        <time>2011-08-17T08:12:57Z</time>
      </trkpt>
      <trkpt lat="46.59146" lon="5.8762">
        <ele>808.1254883</ele>
        <time>2011-08-17T08:12:58Z</time>
      </trkpt>
      <trkpt lat="46.59139" lon="5.8763">
        <ele>811.4899902</ele>
        <time>2011-08-17T08:13:02Z</time>
      </trkpt>
      <trkpt lat="46.59131" lon="5.87652">
        <ele>809.0866699</ele>
        <time>2011-08-17T08:13:09Z</time>
      </trkpt>
      <trkpt lat="46.59121" lon="5.87663">
        <ele>809.0866699</ele>
        <time>2011-08-17T08:13:14Z</time>
      </trkpt>
      <trkpt lat="46.59108" lon="5.87678">
        <ele>812.9321289</ele>
        <time>2011-08-17T08:13:20Z</time>
      </trkpt>
      <trkpt lat="46.59095" lon="5.87686">
        <ele>812.9321289</ele>
        <time>2011-08-17T08:13:25Z</time>
      </trkpt>
      <trkpt lat="46.59089" lon="5.87687">
        <ele>812.9321289</ele>
        <time>2011-08-17T08:13:27Z</time>
      </trkpt>
      <trkpt lat="46.59079" lon="5.87687">
        <ele>813.8933105</ele>
        <time>2011-08-17T08:13:31Z</time>
      </trkpt>
      <trkpt lat="46.59066" lon="5.87684">
        <ele>814.3740234</ele>
        <time>2011-08-17T08:13:36Z</time>
      </trkpt>
      <trkpt lat="46.59057" lon="5.8768">
        <ele>816.2966309</ele>
        <time>2011-08-17T08:13:40Z</time>
      </trkpt>
      <trkpt lat="46.59044" lon="5.87672">
        <ele>815.8161621</ele>
        <time>2011-08-17T08:13:45Z</time>
      </trkpt>
      <trkpt lat="46.59033" lon="5.87659">
        <ele>816.2966309</ele>
        <time>2011-08-17T08:13:51Z</time>
      </trkpt>
      <trkpt lat="46.59029" lon="5.87658">
        <ele>818.2192383</ele>
        <time>2011-08-17T08:13:53Z</time>
      </trkpt>
      <trkpt lat="46.59016" lon="5.87653">
        <ele>823.9870605</ele>
        <time>2011-08-17T08:13:59Z</time>
      </trkpt>
      <trkpt lat="46.59004" lon="5.87652">
        <ele>829.755127</ele>
        <time>2011-08-17T08:14:04Z</time>
      </trkpt>
      <trkpt lat="46.58992" lon="5.87654">
        <ele>838.4069824</ele>
        <time>2011-08-17T08:14:09Z</time>
      </trkpt>
      <trkpt lat="46.58978" lon="5.87646">
        <ele>834.0810547</ele>
        <time>2011-08-17T08:14:14Z</time>
      </trkpt>
      <trkpt lat="46.58976" lon="5.87645">
        <ele>835.0424805</ele>
        <time>2011-08-17T08:14:15Z</time>
      </trkpt>
      <trkpt lat="46.58957" lon="5.87638">
        <ele>830.2358398</ele>
        <time>2011-08-17T08:14:21Z</time>
      </trkpt>
      <trkpt lat="46.58954" lon="5.87632">
        <ele>827.3518066</ele>
        <time>2011-08-17T08:14:24Z</time>
      </trkpt>
      <trkpt lat="46.58945" lon="5.87627">
        <ele>826.8710938</ele>
        <time>2011-08-17T08:14:27Z</time>
      </trkpt>
      <trkpt lat="46.58933" lon="5.87622">
        <ele>823.5065918</ele>
        <time>2011-08-17T08:14:33Z</time>
      </trkpt>
      <trkpt lat="46.58924" lon="5.87618">
        <ele>823.9870605</ele>
        <time>2011-08-17T08:14:36Z</time>
      </trkpt>
      <trkpt lat="46.58919" lon="5.87617">
        <ele>823.0258789</ele>
        <time>2011-08-17T08:14:38Z</time>
      </trkpt>
      <trkpt lat="46.58907" lon="5.87615">
        <ele>824.9484863</ele>
        <time>2011-08-17T08:14:43Z</time>
      </trkpt>
      <trkpt lat="46.58899" lon="5.87622">
        <ele>826.8710938</ele>
        <time>2011-08-17T08:14:47Z</time>
      </trkpt>
      <trkpt lat="46.58892" lon="5.87625">
        <ele>828.3132324</ele>
        <time>2011-08-17T08:14:51Z</time>
      </trkpt>
      <trkpt lat="46.5889" lon="5.87625">
        <ele>827.8322754</ele>
        <time>2011-08-17T08:14:53Z</time>
      </trkpt>
      <trkpt lat="46.5888" lon="5.87632">
        <ele>832.1584473</ele>
        <time>2011-08-17T08:14:59Z</time>
      </trkpt>
      <trkpt lat="46.58879" lon="5.87634">
        <ele>832.1584473</ele>
        <time>2011-08-17T08:15:00Z</time>
      </trkpt>
      <trkpt lat="46.58869" lon="5.87643">
        <ele>834.5617676</ele>
        <time>2011-08-17T08:15:05Z</time>
      </trkpt>
      <trkpt lat="46.58866" lon="5.87642">
        <ele>834.5617676</ele>
        <time>2011-08-17T08:15:06Z</time>
      </trkpt>
      <trkpt lat="46.58853" lon="5.87645">
        <ele>835.5229492</ele>
        <time>2011-08-17T08:15:10Z</time>
      </trkpt>
      <trkpt lat="46.5884" lon="5.87644">
        <ele>836.9648438</ele>
        <time>2011-08-17T08:15:15Z</time>
      </trkpt>
      <trkpt lat="46.58828" lon="5.87643">
        <ele>833.1196289</ele>
        <time>2011-08-17T08:15:21Z</time>
      </trkpt>
      <trkpt lat="46.58824" lon="5.8764">
        <ele>833.1196289</ele>
        <time>2011-08-17T08:15:23Z</time>
      </trkpt>
      <trkpt lat="46.58809" lon="5.87642">
        <ele>829.755127</ele>
        <time>2011-08-17T08:15:30Z</time>
      </trkpt>
      <trkpt lat="46.58791" lon="5.87647">
        <ele>835.0424805</ele>
        <time>2011-08-17T08:15:36Z</time>
      </trkpt>
      <trkpt lat="46.58781" lon="5.87642">
        <ele>837.4455566</ele>
        <time>2011-08-17T08:15:40Z</time>
      </trkpt>
      <trkpt lat="46.58778" lon="5.87643">
        <ele>835.5229492</ele>
        <time>2011-08-17T08:15:43Z</time>
      </trkpt>
      <trkpt lat="46.58774" lon="5.87648">
        <ele>832.1584473</ele>
        <time>2011-08-17T08:15:46Z</time>
      </trkpt>
      <trkpt lat="46.5877" lon="5.87653">
        <ele>830.7165527</ele>
        <time>2011-08-17T08:15:51Z</time>
      </trkpt>
      <trkpt lat="46.58759" lon="5.87655">
        <ele>825.4289551</ele>
        <time>2011-08-17T08:15:55Z</time>
      </trkpt>
      <trkpt lat="46.58747" lon="5.87655">
        <ele>826.3903809</ele>
        <time>2011-08-17T08:16:00Z</time>
      </trkpt>
      <trkpt lat="46.58736" lon="5.87649">
        <ele>833.1196289</ele>
        <time>2011-08-17T08:16:05Z</time>
      </trkpt>
      <trkpt lat="46.58734" lon="5.87649">
        <ele>834.0810547</ele>
        <time>2011-08-17T08:16:06Z</time>
      </trkpt>
      <trkpt lat="46.58722" lon="5.8765">
        <ele>839.3681641</ele>
        <time>2011-08-17T08:16:11Z</time>
      </trkpt>
      <trkpt lat="46.58712" lon="5.87655">
        <ele>836.0036621</ele>
        <time>2011-08-17T08:16:18Z</time>
      </trkpt>
      <trkpt lat="46.58704" lon="5.87658">
        <ele>830.7165527</ele>
        <time>2011-08-17T08:16:24Z</time>
      </trkpt>
      <trkpt lat="46.58693" lon="5.87654">
        <ele>832.6391602</ele>
        <time>2011-08-17T08:16:29Z</time>
      </trkpt>
      <trkpt lat="46.58678" lon="5.87651">
        <ele>838.4069824</ele>
        <time>2011-08-17T08:16:36Z</time>
      </trkpt>
      <trkpt lat="46.58669" lon="5.87651">
        <ele>838.4069824</ele>
        <time>2011-08-17T08:16:43Z</time>
      </trkpt>
      <trkpt lat="46.58659" lon="5.87654">
        <ele>842.2521973</ele>
        <time>2011-08-17T08:16:49Z</time>
      </trkpt>
      <trkpt lat="46.58649" lon="5.87657">
        <ele>845.1362305</ele>
        <time>2011-08-17T08:16:55Z</time>
      </trkpt>
      <trkpt lat="46.58645" lon="5.87656">
        <ele>848.5007324</ele>
        <time>2011-08-17T08:16:59Z</time>
      </trkpt>
      <trkpt lat="46.58639" lon="5.87659">
        <ele>847.5395508</ele>
        <time>2011-08-17T08:17:05Z</time>
      </trkpt>
      <trkpt lat="46.58629" lon="5.87661">
        <ele>845.1362305</ele>
        <time>2011-08-17T08:17:12Z</time>
      </trkpt>
      <trkpt lat="46.58627" lon="5.87661">
        <ele>844.1750488</ele>
        <time>2011-08-17T08:17:15Z</time>
      </trkpt>
      <trkpt lat="46.5862" lon="5.87663">
        <ele>845.6169434</ele>
        <time>2011-08-17T08:17:20Z</time>
      </trkpt>
      <trkpt lat="46.58611" lon="5.87664">
        <ele>847.0588379</ele>
        <time>2011-08-17T08:17:26Z</time>
      </trkpt>
      <trkpt lat="46.58607" lon="5.87662">
        <ele>848.5007324</ele>
        <time>2011-08-17T08:17:28Z</time>
      </trkpt>
      <trkpt lat="46.58601" lon="5.87659">
        <ele>852.3459473</ele>
        <time>2011-08-17T08:17:31Z</time>
      </trkpt>
      <trkpt lat="46.58591" lon="5.87654">
        <ele>853.307373</ele>
        <time>2011-08-17T08:17:37Z</time>
      </trkpt>
      <trkpt lat="46.58587" lon="5.87653">
        <ele>853.307373</ele>
        <time>2011-08-17T08:17:39Z</time>
      </trkpt>
      <trkpt lat="46.58579" lon="5.87654">
        <ele>848.9814453</ele>
        <time>2011-08-17T08:17:45Z</time>
      </trkpt>
      <trkpt lat="46.58572" lon="5.87651">
        <ele>852.8266602</ele>
        <time>2011-08-17T08:17:50Z</time>
      </trkpt>
      <trkpt lat="46.58567" lon="5.87652">
        <ele>855.2299805</ele>
        <time>2011-08-17T08:17:53Z</time>
      </trkpt>
      <trkpt lat="46.58565" lon="5.87656">
        <ele>855.2299805</ele>
        <time>2011-08-17T08:17:57Z</time>
      </trkpt>
      <trkpt lat="46.58557" lon="5.87659">
        <ele>858.1140137</ele>
        <time>2011-08-17T08:18:03Z</time>
      </trkpt>
      <trkpt lat="46.58551" lon="5.87659">
        <ele>860.517334</ele>
        <time>2011-08-17T08:18:09Z</time>
      </trkpt>
      <trkpt lat="46.58543" lon="5.87658">
        <ele>859.5559082</ele>
        <time>2011-08-17T08:18:16Z</time>
      </trkpt>
      <trkpt lat="46.5854" lon="5.87656">
        <ele>857.6333008</ele>
        <time>2011-08-17T08:18:20Z</time>
      </trkpt>
      <trkpt lat="46.58538" lon="5.87655">
        <ele>858.1140137</ele>
        <time>2011-08-17T08:18:21Z</time>
      </trkpt>
      <trkpt lat="46.58532" lon="5.87653">
        <ele>859.5559082</ele>
        <time>2011-08-17T08:18:25Z</time>
      </trkpt>
      <trkpt lat="46.58526" lon="5.87653">
        <ele>860.9980469</ele>
        <time>2011-08-17T08:18:29Z</time>
      </trkpt>
      <trkpt lat="46.58521" lon="5.87653">
        <ele>862.9206543</ele>
        <time>2011-08-17T08:18:33Z</time>
      </trkpt>
      <trkpt lat="46.58516" lon="5.87651">
        <ele>865.3239746</ele>
        <time>2011-08-17T08:18:37Z</time>
      </trkpt>
      <trkpt lat="46.58512" lon="5.87646">
        <ele>867.246582</ele>
        <time>2011-08-17T08:18:40Z</time>
      </trkpt>
      <trkpt lat="46.58506" lon="5.87639">
        <ele>868.6884766</ele>
        <time>2011-08-17T08:18:45Z</time>
      </trkpt>
      <trkpt lat="46.58502" lon="5.87642">
        <ele>867.7270508</ele>
        <time>2011-08-17T08:18:48Z</time>
      </trkpt>
      <trkpt lat="46.58498" lon="5.8764">
        <ele>870.1303711</ele>
        <time>2011-08-17T08:18:53Z</time>
      </trkpt>
      <trkpt lat="46.58494" lon="5.87643">
        <ele>869.6499023</ele>
        <time>2011-08-17T08:18:56Z</time>
      </trkpt>
      <trkpt lat="46.58489" lon="5.87648">
        <ele>869.1691895</ele>
        <time>2011-08-17T08:18:59Z</time>
      </trkpt>
      <trkpt lat="46.58482" lon="5.87643">
        <ele>872.5336914</ele>
        <time>2011-08-17T08:19:03Z</time>
      </trkpt>
      <trkpt lat="46.58477" lon="5.87643">
        <ele>873.4951172</ele>
        <time>2011-08-17T08:19:06Z</time>
      </trkpt>
      <trkpt lat="46.58472" lon="5.87639">
        <ele>876.8598633</ele>
        <time>2011-08-17T08:19:11Z</time>
      </trkpt>
      <trkpt lat="46.58464" lon="5.87642">
        <ele>879.7436523</ele>
        <time>2011-08-17T08:19:15Z</time>
      </trkpt>
      <trkpt lat="46.58457" lon="5.87646">
        <ele>881.6662598</ele>
        <time>2011-08-17T08:19:22Z</time>
      </trkpt>
      <trkpt lat="46.58453" lon="5.87641">
        <ele>882.1469727</ele>
        <time>2011-08-17T08:19:27Z</time>
      </trkpt>
      <trkpt lat="46.58451" lon="5.87641">
        <ele>883.5888672</ele>
        <time>2011-08-17T08:19:29Z</time>
      </trkpt>
      <trkpt lat="46.58449" lon="5.8764">
        <ele>883.5888672</ele>
        <time>2011-08-17T08:19:31Z</time>
      </trkpt>
      <trkpt lat="46.5844" lon="5.87641">
        <ele>884.0695801</ele>
        <time>2011-08-17T08:19:38Z</time>
      </trkpt>
      <trkpt lat="46.58434" lon="5.87642">
        <ele>881.185791</ele>
        <time>2011-08-17T08:19:43Z</time>
      </trkpt>
      <trkpt lat="46.58426" lon="5.87644">
        <ele>879.7436523</ele>
        <time>2011-08-17T08:19:48Z</time>
      </trkpt>
      <trkpt lat="46.58424" lon="5.87644">
        <ele>880.7050781</ele>
        <time>2011-08-17T08:19:49Z</time>
      </trkpt>
      <trkpt lat="46.58413" lon="5.87637">
        <ele>882.6276855</ele>
        <time>2011-08-17T08:19:55Z</time>
      </trkpt>
      <trkpt lat="46.58409" lon="5.87637">
        <ele>882.1469727</ele>
        <time>2011-08-17T08:19:57Z</time>
      </trkpt>
      <trkpt lat="46.58395" lon="5.87629">
        <ele>886.4729004</ele>
        <time>2011-08-17T08:20:04Z</time>
      </trkpt>
      <trkpt lat="46.58383" lon="5.87629">
        <ele>889.8374023</ele>
        <time>2011-08-17T08:20:10Z</time>
      </trkpt>
      <trkpt lat="46.58378" lon="5.87628">
        <ele>893.6828613</ele>
        <time>2011-08-17T08:20:13Z</time>
      </trkpt>
      <trkpt lat="46.58371" lon="5.87632">
        <ele>893.2021484</ele>
        <time>2011-08-17T08:20:19Z</time>
      </trkpt>
      <trkpt lat="46.58369" lon="5.87629">
        <ele>899.4506836</ele>
        <time>2011-08-17T08:20:25Z</time>
      </trkpt>
      <trkpt lat="46.58365" lon="5.87625">
        <ele>903.2958984</ele>
        <time>2011-08-17T08:20:30Z</time>
      </trkpt>
      <trkpt lat="46.58358" lon="5.87617">
        <ele>907.6218262</ele>
        <time>2011-08-17T08:20:34Z</time>
      </trkpt>
      <trkpt lat="46.58348" lon="5.87614">
        <ele>913.8703613</ele>
        <time>2011-08-17T08:20:40Z</time>
      </trkpt>
      <trkpt lat="46.58339" lon="5.8761">
        <ele>916.2736816</ele>
        <time>2011-08-17T08:20:46Z</time>
      </trkpt>
      <trkpt lat="46.58337" lon="5.87609">
        <ele>916.2736816</ele>
        <time>2011-08-17T08:20:47Z</time>
      </trkpt>
      <trkpt lat="46.58334" lon="5.87603">
        <ele>913.3898926</ele>
        <time>2011-08-17T08:20:57Z</time>
      </trkpt>
      <trkpt lat="46.58327" lon="5.87597">
        <ele>908.1027832</ele>
        <time>2011-08-17T08:21:03Z</time>
      </trkpt>
      <trkpt lat="46.58324" lon="5.87595">
        <ele>911.4672852</ele>
        <time>2011-08-17T08:21:05Z</time>
      </trkpt>
      <trkpt lat="46.58319" lon="5.87591">
        <ele>905.6992188</ele>
        <time>2011-08-17T08:21:12Z</time>
      </trkpt>
      <trkpt lat="46.58317" lon="5.87589">
        <ele>900.4121094</ele>
        <time>2011-08-17T08:21:17Z</time>
      </trkpt>
      <trkpt lat="46.58316" lon="5.87588">
        <ele>900.4121094</ele>
        <time>2011-08-17T08:21:18Z</time>
      </trkpt>
      <trkpt lat="46.58314" lon="5.87587">
        <ele>900.8925781</ele>
        <time>2011-08-17T08:21:22Z</time>
      </trkpt>
      <trkpt lat="46.58307" lon="5.87587">
        <ele>901.373291</ele>
        <time>2011-08-17T08:21:26Z</time>
      </trkpt>
      <trkpt lat="46.58304" lon="5.87583">
        <ele>906.1796875</ele>
        <time>2011-08-17T08:21:31Z</time>
      </trkpt>
      <trkpt lat="46.58303" lon="5.87579">
        <ele>909.5446777</ele>
        <time>2011-08-17T08:21:34Z</time>
      </trkpt>
      <trkpt lat="46.58298" lon="5.87574">
        <ele>909.0639648</ele>
        <time>2011-08-17T08:21:39Z</time>
      </trkpt>
      <trkpt lat="46.58296" lon="5.87574">
        <ele>909.5446777</ele>
        <time>2011-08-17T08:21:41Z</time>
      </trkpt>
      <trkpt lat="46.58289" lon="5.87573">
        <ele>915.3125</ele>
        <time>2011-08-17T08:21:48Z</time>
      </trkpt>
      <trkpt lat="46.58285" lon="5.87572">
        <ele>916.2736816</ele>
        <time>2011-08-17T08:21:50Z</time>
      </trkpt>
      <trkpt lat="46.58279" lon="5.8756">
        <ele>919.6384277</ele>
        <time>2011-08-17T08:21:56Z</time>
      </trkpt>
      <trkpt lat="46.58277" lon="5.87554">
        <ele>921.560791</ele>
        <time>2011-08-17T08:22:00Z</time>
      </trkpt>
      <trkpt lat="46.58269" lon="5.87545">
        <ele>923.0029297</ele>
        <time>2011-08-17T08:22:05Z</time>
      </trkpt>
      <trkpt lat="46.58263" lon="5.8754">
        <ele>921.560791</ele>
        <time>2011-08-17T08:22:09Z</time>
      </trkpt>
      <trkpt lat="46.58251" lon="5.87533">
        <ele>910.0251465</ele>
        <time>2011-08-17T08:22:15Z</time>
      </trkpt>
      <trkpt lat="46.58245" lon="5.87527">
        <ele>910.0251465</ele>
        <time>2011-08-17T08:22:19Z</time>
      </trkpt>
      <trkpt lat="46.58243" lon="5.87523">
        <ele>910.9865723</ele>
        <time>2011-08-17T08:22:22Z</time>
      </trkpt>
      <trkpt lat="46.58233" lon="5.87509">
        <ele>912.9091797</ele>
        <time>2011-08-17T08:22:27Z</time>
      </trkpt>
      <trkpt lat="46.58226" lon="5.87499">
        <ele>915.7932129</ele>
        <time>2011-08-17T08:22:32Z</time>
      </trkpt>
      <trkpt lat="46.58222" lon="5.87498">
        <ele>914.8317871</ele>
        <time>2011-08-17T08:22:37Z</time>
      </trkpt>
      <trkpt lat="46.5822" lon="5.87495">
        <ele>912.4284668</ele>
        <time>2011-08-17T08:22:40Z</time>
      </trkpt>
      <trkpt lat="46.58215" lon="5.87493">
        <ele>909.0639648</ele>
        <time>2011-08-17T08:22:44Z</time>
      </trkpt>
      <trkpt lat="46.58212" lon="5.87488">
        <ele>907.6218262</ele>
        <time>2011-08-17T08:22:48Z</time>
      </trkpt>
      <trkpt lat="46.58207" lon="5.87483">
        <ele>907.6218262</ele>
        <time>2011-08-17T08:22:52Z</time>
      </trkpt>
      <trkpt lat="46.58202" lon="5.87471">
        <ele>912.4284668</ele>
        <time>2011-08-17T08:22:59Z</time>
      </trkpt>
      <trkpt lat="46.58201" lon="5.87468">
        <ele>913.8703613</ele>
        <time>2011-08-17T08:23:01Z</time>
      </trkpt>
      <trkpt lat="46.58197" lon="5.87457">
        <ele>914.3510742</ele>
        <time>2011-08-17T08:23:06Z</time>
      </trkpt>
      <trkpt lat="46.58191" lon="5.87447">
        <ele>910.9865723</ele>
        <time>2011-08-17T08:23:12Z</time>
      </trkpt>
      <trkpt lat="46.58189" lon="5.87442">
        <ele>911.4672852</ele>
        <time>2011-08-17T08:23:15Z</time>
      </trkpt>
      <trkpt lat="46.58181" lon="5.87435">
        <ele>915.3125</ele>
        <time>2011-08-17T08:23:22Z</time>
      </trkpt>
      <trkpt lat="46.58175" lon="5.87429">
        <ele>916.7543945</ele>
        <time>2011-08-17T08:23:26Z</time>
      </trkpt>
      <trkpt lat="46.58168" lon="5.87425">
        <ele>918.677002</ele>
        <time>2011-08-17T08:23:31Z</time>
      </trkpt>
      <trkpt lat="46.58161" lon="5.87417">
        <ele>921.0803223</ele>
        <time>2011-08-17T08:23:36Z</time>
      </trkpt>
      <trkpt lat="46.58153" lon="5.87414">
        <ele>922.0415039</ele>
        <time>2011-08-17T08:23:42Z</time>
      </trkpt>
      <trkpt lat="46.58148" lon="5.87408">
        <ele>923.4836426</ele>
        <time>2011-08-17T08:23:47Z</time>
      </trkpt>
      <trkpt lat="46.58137" lon="5.87407">
        <ele>925.40625</ele>
        <time>2011-08-17T08:23:52Z</time>
      </trkpt>
      <trkpt lat="46.58135" lon="5.87406">
        <ele>926.3676758</ele>
        <time>2011-08-17T08:23:54Z</time>
      </trkpt>
      <trkpt lat="46.58131" lon="5.87403">
        <ele>928.7709961</ele>
        <time>2011-08-17T08:23:57Z</time>
      </trkpt>
      <trkpt lat="46.58122" lon="5.87399">
        <ele>931.1743164</ele>
        <time>2011-08-17T08:24:02Z</time>
      </trkpt>
      <trkpt lat="46.58116" lon="5.87397">
        <ele>933.5773926</ele>
        <time>2011-08-17T08:24:05Z</time>
      </trkpt>
      <trkpt lat="46.58107" lon="5.87391">
        <ele>935.9807129</ele>
        <time>2011-08-17T08:24:12Z</time>
      </trkpt>
      <trkpt lat="46.58098" lon="5.87387">
        <ele>937.4226074</ele>
        <time>2011-08-17T08:24:18Z</time>
      </trkpt>
      <trkpt lat="46.58097" lon="5.87385">
        <ele>936.4614258</ele>
        <time>2011-08-17T08:24:21Z</time>
      </trkpt>
      <trkpt lat="46.58088" lon="5.87377">
        <ele>936.9418945</ele>
        <time>2011-08-17T08:24:27Z</time>
      </trkpt>
      <trkpt lat="46.58087" lon="5.87378">
        <ele>937.4226074</ele>
        <time>2011-08-17T08:24:29Z</time>
      </trkpt>
      <trkpt lat="46.58083" lon="5.87376">
        <ele>935.9807129</ele>
        <time>2011-08-17T08:24:33Z</time>
      </trkpt>
      <trkpt lat="46.58077" lon="5.87375">
        <ele>938.8647461</ele>
        <time>2011-08-17T08:24:40Z</time>
      </trkpt>
      <trkpt lat="46.58073" lon="5.87377">
        <ele>939.8259277</ele>
        <time>2011-08-17T08:24:42Z</time>
      </trkpt>
      <trkpt lat="46.58065" lon="5.87374">
        <ele>940.7873535</ele>
        <time>2011-08-17T08:24:47Z</time>
      </trkpt>
      <trkpt lat="46.58055" lon="5.87377">
        <ele>935.0195313</ele>
        <time>2011-08-17T08:24:54Z</time>
      </trkpt>
      <trkpt lat="46.58048" lon="5.87381">
        <ele>929.7321777</ele>
        <time>2011-08-17T08:25:00Z</time>
      </trkpt>
      <trkpt lat="46.58042" lon="5.87384">
        <ele>928.7709961</ele>
        <time>2011-08-17T08:25:05Z</time>
      </trkpt>
      <trkpt lat="46.5803" lon="5.87373">
        <ele>928.7709961</ele>
        <time>2011-08-17T08:25:10Z</time>
      </trkpt>
      <trkpt lat="46.58028" lon="5.87371">
        <ele>927.8095703</ele>
        <time>2011-08-17T08:25:12Z</time>
      </trkpt>
      <trkpt lat="46.58019" lon="5.87368">
        <ele>927.8095703</ele>
        <time>2011-08-17T08:25:18Z</time>
      </trkpt>
      <trkpt lat="46.58012" lon="5.87366">
        <ele>929.2514648</ele>
        <time>2011-08-17T08:25:22Z</time>
      </trkpt>
      <trkpt lat="46.58007" lon="5.87366">
        <ele>930.2128906</ele>
        <time>2011-08-17T08:25:26Z</time>
      </trkpt>
      <trkpt lat="46.58002" lon="5.87366">
        <ele>929.7321777</ele>
        <time>2011-08-17T08:25:30Z</time>
      </trkpt>
      <trkpt lat="46.57999" lon="5.87373">
        <ele>929.7321777</ele>
        <time>2011-08-17T08:25:38Z</time>
      </trkpt>
      <trkpt lat="46.57995" lon="5.87359">
        <ele>943.1906738</ele>
        <time>2011-08-17T08:25:45Z</time>
      </trkpt>
      <trkpt lat="46.57988" lon="5.87349">
        <ele>949.9199219</ele>
        <time>2011-08-17T08:25:47Z</time>
      </trkpt>
      <trkpt lat="46.57973" lon="5.87347">
        <ele>952.8037109</ele>
        <time>2011-08-17T08:25:54Z</time>
      </trkpt>
      <trkpt lat="46.57948" lon="5.87331">
        <ele>962.4169922</ele>
        <time>2011-08-17T08:26:10Z</time>
      </trkpt>
      <trkpt lat="46.57942" lon="5.8733">
        <ele>961.9365234</ele>
        <time>2011-08-17T08:26:17Z</time>
      </trkpt>
      <trkpt lat="46.5794" lon="5.87333">
        <ele>960.0136719</ele>
        <time>2011-08-17T08:26:19Z</time>
      </trkpt>
      <trkpt lat="46.57937" lon="5.87336">
        <ele>960.9750977</ele>
        <time>2011-08-17T08:26:22Z</time>
      </trkpt>
      <trkpt lat="46.57931" lon="5.8734">
        <ele>965.3010254</ele>
        <time>2011-08-17T08:26:26Z</time>
      </trkpt>
      <trkpt lat="46.57924" lon="5.87347">
        <ele>970.5881348</ele>
        <time>2011-08-17T08:26:31Z</time>
      </trkpt>
      <trkpt lat="46.57919" lon="5.87352">
        <ele>969.1462402</ele>
        <time>2011-08-17T08:26:35Z</time>
      </trkpt>
      <trkpt lat="46.57919" lon="5.87353">
        <ele>968.1848145</ele>
        <time>2011-08-17T08:26:37Z</time>
      </trkpt>
      <trkpt lat="46.5792" lon="5.8735">
        <ele>973.9528809</ele>
        <time>2011-08-17T08:26:44Z</time>
      </trkpt>
      <trkpt lat="46.57921" lon="5.87351">
        <ele>973.9528809</ele>
        <time>2011-08-17T08:26:45Z</time>
      </trkpt>
      <trkpt lat="46.57932" lon="5.87353">
        <ele>967.7041016</ele>
        <time>2011-08-17T08:26:50Z</time>
      </trkpt>
      <trkpt lat="46.57926" lon="5.87356">
        <ele>965.3010254</ele>
        <time>2011-08-17T08:26:55Z</time>
      </trkpt>
      <trkpt lat="46.57913" lon="5.87363">
        <ele>961.9365234</ele>
        <time>2011-08-17T08:27:00Z</time>
      </trkpt>
      <trkpt lat="46.57907" lon="5.87374">
        <ele>962.4169922</ele>
        <time>2011-08-17T08:27:05Z</time>
      </trkpt>
      <trkpt lat="46.57906" lon="5.87382">
        <ele>965.3010254</ele>
        <time>2011-08-17T08:27:08Z</time>
      </trkpt>
      <trkpt lat="46.57898" lon="5.87401">
        <ele>980.6821289</ele>
        <time>2011-08-17T08:27:15Z</time>
      </trkpt>
      <trkpt lat="46.57898" lon="5.87407">
        <ele>981.1628418</ele>
        <time>2011-08-17T08:27:18Z</time>
      </trkpt>
      <trkpt lat="46.57893" lon="5.87416">
        <ele>978.2788086</ele>
        <time>2011-08-17T08:27:23Z</time>
      </trkpt>
      <trkpt lat="46.57887" lon="5.87419">
        <ele>971.5493164</ele>
        <time>2011-08-17T08:27:26Z</time>
      </trkpt>
      <trkpt lat="46.57884" lon="5.87427">
        <ele>970.1074219</ele>
        <time>2011-08-17T08:27:30Z</time>
      </trkpt>
      <trkpt lat="46.57876" lon="5.87431">
        <ele>972.5109863</ele>
        <time>2011-08-17T08:27:36Z</time>
      </trkpt>
      <trkpt lat="46.57876" lon="5.87426">
        <ele>966.7429199</ele>
        <time>2011-08-17T08:27:52Z</time>
      </trkpt>
      <trkpt lat="46.57875" lon="5.87424">
        <ele>973.4724121</ele>
        <time>2011-08-17T08:28:00Z</time>
      </trkpt>
      <trkpt lat="46.57876" lon="5.8742">
        <ele>966.7429199</ele>
        <time>2011-08-17T08:28:03Z</time>
      </trkpt>
      <trkpt lat="46.57879" lon="5.87404">
        <ele>960.4943848</ele>
        <time>2011-08-17T08:28:09Z</time>
      </trkpt>
      <trkpt lat="46.57884" lon="5.87394">
        <ele>958.0913086</ele>
        <time>2011-08-17T08:28:13Z</time>
      </trkpt>
      <trkpt lat="46.57885" lon="5.87392">
        <ele>958.0913086</ele>
        <time>2011-08-17T08:28:14Z</time>
      </trkpt>
      <trkpt lat="46.57892" lon="5.8738">
        <ele>959.0524902</ele>
        <time>2011-08-17T08:28:20Z</time>
      </trkpt>
      <trkpt lat="46.57897" lon="5.87375">
        <ele>959.0524902</ele>
        <time>2011-08-17T08:28:24Z</time>
      </trkpt>
      <trkpt lat="46.57899" lon="5.87374">
        <ele>959.0524902</ele>
        <time>2011-08-17T08:28:25Z</time>
      </trkpt>
      <trkpt lat="46.57908" lon="5.87365">
        <ele>960.9750977</ele>
        <time>2011-08-17T08:28:30Z</time>
      </trkpt>
      <trkpt lat="46.57917" lon="5.87355">
        <ele>964.3395996</ele>
        <time>2011-08-17T08:28:35Z</time>
      </trkpt>
      <trkpt lat="46.57924" lon="5.87338">
        <ele>967.7041016</ele>
        <time>2011-08-17T08:28:41Z</time>
      </trkpt>
      <trkpt lat="46.57924" lon="5.87337">
        <ele>966.7429199</ele>
        <time>2011-08-17T08:28:42Z</time>
      </trkpt>
      <trkpt lat="46.57924" lon="5.87334">
        <ele>966.7429199</ele>
        <time>2011-08-17T08:28:44Z</time>
      </trkpt>
      <trkpt lat="46.5793" lon="5.87328">
        <ele>965.3010254</ele>
        <time>2011-08-17T08:28:49Z</time>
      </trkpt>
      <trkpt lat="46.5793" lon="5.87328">
        <ele>966.262207</ele>
        <time>2011-08-17T08:28:50Z</time>
      </trkpt>
      <trkpt lat="46.57932" lon="5.87323">
        <ele>963.8588867</ele>
        <time>2011-08-17T08:28:55Z</time>
      </trkpt>
      <trkpt lat="46.57938" lon="5.87318">
        <ele>960.0136719</ele>
        <time>2011-08-17T08:29:00Z</time>
      </trkpt>
      <trkpt lat="46.57944" lon="5.87314">
        <ele>959.5332031</ele>
        <time>2011-08-17T08:29:05Z</time>
      </trkpt>
      <trkpt lat="46.57946" lon="5.87312">
        <ele>960.0136719</ele>
        <time>2011-08-17T08:29:07Z</time>
      </trkpt>
      <trkpt lat="46.57945" lon="5.87308">
        <ele>962.4169922</ele>
        <time>2011-08-17T08:29:14Z</time>
      </trkpt>
      <trkpt lat="46.57945" lon="5.8731">
        <ele>960.9750977</ele>
        <time>2011-08-17T08:29:21Z</time>
      </trkpt>
      <trkpt lat="46.5794" lon="5.87316">
        <ele>952.322998</ele>
        <time>2011-08-17T08:29:29Z</time>
      </trkpt>
      <trkpt lat="46.57936" lon="5.87325">
        <ele>952.8037109</ele>
        <time>2011-08-17T08:29:34Z</time>
      </trkpt>
      <trkpt lat="46.57934" lon="5.87326">
        <ele>954.7263184</ele>
        <time>2011-08-17T08:29:35Z</time>
      </trkpt>
      <trkpt lat="46.57929" lon="5.87332">
        <ele>959.5332031</ele>
        <time>2011-08-17T08:29:40Z</time>
      </trkpt>
      <trkpt lat="46.57931" lon="5.87336">
        <ele>961.4558105</ele>
        <time>2011-08-17T08:29:46Z</time>
      </trkpt>
      <trkpt lat="46.57927" lon="5.87333">
        <ele>960.0136719</ele>
        <time>2011-08-17T08:29:51Z</time>
      </trkpt>
      <trkpt lat="46.57928" lon="5.87332">
        <ele>960.9750977</ele>
        <time>2011-08-17T08:29:52Z</time>
      </trkpt>
      <trkpt lat="46.57931" lon="5.87329">
        <ele>962.8977051</ele>
        <time>2011-08-17T08:29:55Z</time>
      </trkpt>
      <trkpt lat="46.57931" lon="5.87328">
        <ele>963.8588867</ele>
        <time>2011-08-17T08:29:57Z</time>
      </trkpt>
      <trkpt lat="46.57935" lon="5.87317">
        <ele>960.0136719</ele>
        <time>2011-08-17T08:30:03Z</time>
      </trkpt>
      <trkpt lat="46.57936" lon="5.87311">
        <ele>959.0524902</ele>
        <time>2011-08-17T08:30:06Z</time>
      </trkpt>
      <trkpt lat="46.57937" lon="5.87309">
        <ele>954.7263184</ele>
        <time>2011-08-17T08:30:12Z</time>
      </trkpt>
      <trkpt lat="46.57938" lon="5.87305">
        <ele>954.2458496</ele>
        <time>2011-08-17T08:30:15Z</time>
      </trkpt>
      <trkpt lat="46.57938" lon="5.873">
        <ele>953.2844238</ele>
        <time>2011-08-17T08:30:18Z</time>
      </trkpt>
      <trkpt lat="46.5794" lon="5.87291">
        <ele>952.8037109</ele>
        <time>2011-08-17T08:30:25Z</time>
      </trkpt>
      <trkpt lat="46.57941" lon="5.87291">
        <ele>954.7263184</ele>
        <time>2011-08-17T08:30:35Z</time>
      </trkpt>
      <trkpt lat="46.57941" lon="5.87289">
        <ele>957.6105957</ele>
        <time>2011-08-17T08:30:41Z</time>
      </trkpt>
      <trkpt lat="46.57938" lon="5.87294">
        <ele>952.8037109</ele>
        <time>2011-08-17T08:30:48Z</time>
      </trkpt>
      <trkpt lat="46.57935" lon="5.873">
        <ele>950.8811035</ele>
        <time>2011-08-17T08:30:53Z</time>
      </trkpt>
      <trkpt lat="46.57938" lon="5.87309">
        <ele>948.4777832</ele>
        <time>2011-08-17T08:31:01Z</time>
      </trkpt>
      <trkpt lat="46.57937" lon="5.87314">
        <ele>949.9199219</ele>
        <time>2011-08-17T08:31:05Z</time>
      </trkpt>
      <trkpt lat="46.57936" lon="5.87316">
        <ele>950.8811035</ele>
        <time>2011-08-17T08:31:06Z</time>
      </trkpt>
      <trkpt lat="46.57934" lon="5.87323">
        <ele>949.9199219</ele>
        <time>2011-08-17T08:31:12Z</time>
      </trkpt>
      <trkpt lat="46.57935" lon="5.87332">
        <ele>949.9199219</ele>
        <time>2011-08-17T08:31:19Z</time>
      </trkpt>
      <trkpt lat="46.57937" lon="5.87338">
        <ele>956.168457</ele>
        <time>2011-08-17T08:31:25Z</time>
      </trkpt>
      <trkpt lat="46.57936" lon="5.87346">
        <ele>966.7429199</ele>
        <time>2011-08-17T08:31:35Z</time>
      </trkpt>
      <trkpt lat="46.57939" lon="5.87342">
        <ele>968.1848145</ele>
        <time>2011-08-17T08:31:39Z</time>
      </trkpt>
      <trkpt lat="46.57944" lon="5.87335">
        <ele>965.3010254</ele>
        <time>2011-08-17T08:31:45Z</time>
      </trkpt>
      <trkpt lat="46.57949" lon="5.8733">
        <ele>964.8203125</ele>
        <time>2011-08-17T08:31:49Z</time>
      </trkpt>
      <trkpt lat="46.5795" lon="5.87319">
        <ele>965.7817383</ele>
        <time>2011-08-17T08:31:54Z</time>
      </trkpt>
      <trkpt lat="46.5795" lon="5.87313">
        <ele>963.8588867</ele>
        <time>2011-08-17T08:32:02Z</time>
      </trkpt>
      <trkpt lat="46.57953" lon="5.87312">
        <ele>966.262207</ele>
        <time>2011-08-17T08:32:08Z</time>
      </trkpt>
      <trkpt lat="46.57955" lon="5.87312">
        <ele>964.3395996</ele>
        <time>2011-08-17T08:32:13Z</time>
      </trkpt>
      <trkpt lat="46.57959" lon="5.87316">
        <ele>956.6491699</ele>
        <time>2011-08-17T08:32:19Z</time>
      </trkpt>
      <trkpt lat="46.57982" lon="5.87324">
        <ele>959.5332031</ele>
        <time>2011-08-17T08:32:29Z</time>
      </trkpt>
      <trkpt lat="46.58" lon="5.87342">
        <ele>955.6877441</ele>
        <time>2011-08-17T08:32:40Z</time>
      </trkpt>
      <trkpt lat="46.58003" lon="5.87337">
        <ele>953.7651367</ele>
        <time>2011-08-17T08:32:46Z</time>
      </trkpt>
      <trkpt lat="46.58002" lon="5.8734">
        <ele>948.4777832</ele>
        <time>2011-08-17T08:32:50Z</time>
      </trkpt>
      <trkpt lat="46.58004" lon="5.87338">
        <ele>942.7102051</ele>
        <time>2011-08-17T08:32:57Z</time>
      </trkpt>
      <trkpt lat="46.58005" lon="5.87336">
        <ele>942.7102051</ele>
        <time>2011-08-17T08:33:03Z</time>
      </trkpt>
      <trkpt lat="46.57987" lon="5.87299">
        <ele>983.0852051</ele>
        <time>2011-08-17T08:34:05Z</time>
      </trkpt>
      <trkpt lat="46.57988" lon="5.87288">
        <ele>989.8146973</ele>
        <time>2011-08-17T08:34:08Z</time>
      </trkpt>
      <trkpt lat="46.57992" lon="5.87277">
        <ele>998.4663086</ele>
        <time>2011-08-17T08:34:13Z</time>
      </trkpt>
      <trkpt lat="46.58" lon="5.8728">
        <ele>993.6599121</ele>
        <time>2011-08-17T08:34:17Z</time>
      </trkpt>
      <trkpt lat="46.58009" lon="5.87281">
        <ele>992.2180176</ele>
        <time>2011-08-17T08:34:22Z</time>
      </trkpt>
      <trkpt lat="46.58017" lon="5.87284">
        <ele>991.7373047</ele>
        <time>2011-08-17T08:34:26Z</time>
      </trkpt>
      <trkpt lat="46.5803" lon="5.87293">
        <ele>989.8146973</ele>
        <time>2011-08-17T08:34:30Z</time>
      </trkpt>
      <trkpt lat="46.58035" lon="5.87293">
        <ele>988.8535156</ele>
        <time>2011-08-17T08:34:34Z</time>
      </trkpt>
      <trkpt lat="46.58041" lon="5.87297">
        <ele>986.4499512</ele>
        <time>2011-08-17T08:34:39Z</time>
      </trkpt>
      <trkpt lat="46.58051" lon="5.87303">
        <ele>983.0852051</ele>
        <time>2011-08-17T08:34:45Z</time>
      </trkpt>
      <trkpt lat="46.58059" lon="5.87308">
        <ele>979.7207031</ele>
        <time>2011-08-17T08:34:49Z</time>
      </trkpt>
      <trkpt lat="46.58064" lon="5.87311">
        <ele>978.2788086</ele>
        <time>2011-08-17T08:34:52Z</time>
      </trkpt>
      <trkpt lat="46.58071" lon="5.87317">
        <ele>975.8754883</ele>
        <time>2011-08-17T08:34:56Z</time>
      </trkpt>
      <trkpt lat="46.58081" lon="5.87328">
        <ele>968.1848145</ele>
        <time>2011-08-17T08:35:01Z</time>
      </trkpt>
      <trkpt lat="46.58085" lon="5.87336">
        <ele>962.4169922</ele>
        <time>2011-08-17T08:35:03Z</time>
      </trkpt>
      <trkpt lat="46.58101" lon="5.87361">
        <ele>939.3452148</ele>
        <time>2011-08-17T08:35:10Z</time>
      </trkpt>
      <trkpt lat="46.58102" lon="5.87359">
        <ele>932.6162109</ele>
        <time>2011-08-17T08:35:19Z</time>
      </trkpt>
      <trkpt lat="46.58108" lon="5.87372">
        <ele>923.9641113</ele>
        <time>2011-08-17T08:35:21Z</time>
      </trkpt>
      <trkpt lat="46.58113" lon="5.87373">
        <ele>924.4450684</ele>
        <time>2011-08-17T08:35:24Z</time>
      </trkpt>
      <trkpt lat="46.58124" lon="5.87377">
        <ele>925.40625</ele>
        <time>2011-08-17T08:35:29Z</time>
      </trkpt>
      <trkpt lat="46.58135" lon="5.87383">
        <ele>922.5222168</ele>
        <time>2011-08-17T08:35:34Z</time>
      </trkpt>
      <trkpt lat="46.58141" lon="5.87386">
        <ele>922.0415039</ele>
        <time>2011-08-17T08:35:39Z</time>
      </trkpt>
      <trkpt lat="46.5815" lon="5.87391">
        <ele>923.0029297</ele>
        <time>2011-08-17T08:35:44Z</time>
      </trkpt>
      <trkpt lat="46.58155" lon="5.87394">
        <ele>926.3676758</ele>
        <time>2011-08-17T08:35:50Z</time>
      </trkpt>
      <trkpt lat="46.58156" lon="5.874">
        <ele>923.9641113</ele>
        <time>2011-08-17T08:35:57Z</time>
      </trkpt>
      <trkpt lat="46.58161" lon="5.87404">
        <ele>924.4450684</ele>
        <time>2011-08-17T08:36:05Z</time>
      </trkpt>
      <trkpt lat="46.58168" lon="5.87407">
        <ele>922.5222168</ele>
        <time>2011-08-17T08:36:11Z</time>
      </trkpt>
      <trkpt lat="46.5817" lon="5.87407">
        <ele>922.5222168</ele>
        <time>2011-08-17T08:36:12Z</time>
      </trkpt>
      <trkpt lat="46.58183" lon="5.87419">
        <ele>920.1188965</ele>
        <time>2011-08-17T08:36:19Z</time>
      </trkpt>
      <trkpt lat="46.58186" lon="5.87423">
        <ele>917.7155762</ele>
        <time>2011-08-17T08:36:21Z</time>
      </trkpt>
      <trkpt lat="46.58197" lon="5.87438">
        <ele>911.4672852</ele>
        <time>2011-08-17T08:36:29Z</time>
      </trkpt>
      <trkpt lat="46.58199" lon="5.87439">
        <ele>911.4672852</ele>
        <time>2011-08-17T08:36:30Z</time>
      </trkpt>
      <trkpt lat="46.58206" lon="5.87452">
        <ele>906.1796875</ele>
        <time>2011-08-17T08:36:36Z</time>
      </trkpt>
      <trkpt lat="46.58209" lon="5.87456">
        <ele>907.1411133</ele>
        <time>2011-08-17T08:36:38Z</time>
      </trkpt>
      <trkpt lat="46.58213" lon="5.87468">
        <ele>907.1411133</ele>
        <time>2011-08-17T08:36:42Z</time>
      </trkpt>
      <trkpt lat="46.5822" lon="5.87478">
        <ele>907.1411133</ele>
        <time>2011-08-17T08:36:48Z</time>
      </trkpt>
      <trkpt lat="46.58225" lon="5.87485">
        <ele>906.6604004</ele>
        <time>2011-08-17T08:36:51Z</time>
      </trkpt>
      <trkpt lat="46.58235" lon="5.87497">
        <ele>907.6218262</ele>
        <time>2011-08-17T08:36:57Z</time>
      </trkpt>
      <trkpt lat="46.58237" lon="5.87499">
        <ele>907.1411133</ele>
        <time>2011-08-17T08:36:58Z</time>
      </trkpt>
      <trkpt lat="46.58242" lon="5.8751">
        <ele>908.1027832</ele>
        <time>2011-08-17T08:37:04Z</time>
      </trkpt>
      <trkpt lat="46.58243" lon="5.87513">
        <ele>908.583252</ele>
        <time>2011-08-17T08:37:07Z</time>
      </trkpt>
      <trkpt lat="46.58251" lon="5.87517">
        <ele>912.9091797</ele>
        <time>2011-08-17T08:37:13Z</time>
      </trkpt>
      <trkpt lat="46.58252" lon="5.87517">
        <ele>914.3510742</ele>
        <time>2011-08-17T08:37:15Z</time>
      </trkpt>
      <trkpt lat="46.58254" lon="5.87515">
        <ele>919.1577148</ele>
        <time>2011-08-17T08:37:22Z</time>
      </trkpt>
      <trkpt lat="46.58264" lon="5.87528">
        <ele>918.1962891</ele>
        <time>2011-08-17T08:37:27Z</time>
      </trkpt>
      <trkpt lat="46.58266" lon="5.8753">
        <ele>918.677002</ele>
        <time>2011-08-17T08:37:28Z</time>
      </trkpt>
      <trkpt lat="46.58271" lon="5.87537">
        <ele>915.3125</ele>
        <time>2011-08-17T08:37:34Z</time>
      </trkpt>
      <trkpt lat="46.58276" lon="5.87541">
        <ele>914.3510742</ele>
        <time>2011-08-17T08:37:37Z</time>
      </trkpt>
      <trkpt lat="46.58279" lon="5.87544">
        <ele>910.5058594</ele>
        <time>2011-08-17T08:37:43Z</time>
      </trkpt>
      <trkpt lat="46.58284" lon="5.87547">
        <ele>910.0251465</ele>
        <time>2011-08-17T08:37:46Z</time>
      </trkpt>
      <trkpt lat="46.5829" lon="5.87546">
        <ele>909.5446777</ele>
        <time>2011-08-17T08:37:51Z</time>
      </trkpt>
      <trkpt lat="46.58292" lon="5.87546">
        <ele>911.4672852</ele>
        <time>2011-08-17T08:37:54Z</time>
      </trkpt>
      <trkpt lat="46.58299" lon="5.8755">
        <ele>913.3898926</ele>
        <time>2011-08-17T08:38:01Z</time>
      </trkpt>
      <trkpt lat="46.58304" lon="5.87553">
        <ele>912.4284668</ele>
        <time>2011-08-17T08:38:07Z</time>
      </trkpt>
      <trkpt lat="46.58312" lon="5.87552">
        <ele>910.9865723</ele>
        <time>2011-08-17T08:38:13Z</time>
      </trkpt>
      <trkpt lat="46.58322" lon="5.87563">
        <ele>907.6218262</ele>
        <time>2011-08-17T08:38:18Z</time>
      </trkpt>
      <trkpt lat="46.58331" lon="5.87581">
        <ele>898.4892578</ele>
        <time>2011-08-17T08:38:23Z</time>
      </trkpt>
      <trkpt lat="46.58333" lon="5.87585">
        <ele>896.5668945</ele>
        <time>2011-08-17T08:38:25Z</time>
      </trkpt>
      <trkpt lat="46.5834" lon="5.87593">
        <ele>893.2021484</ele>
        <time>2011-08-17T08:38:31Z</time>
      </trkpt>
      <trkpt lat="46.58345" lon="5.87597">
        <ele>891.7600098</ele>
        <time>2011-08-17T08:38:34Z</time>
      </trkpt>
      <trkpt lat="46.58351" lon="5.87601">
        <ele>888.3955078</ele>
        <time>2011-08-17T08:38:39Z</time>
      </trkpt>
      <trkpt lat="46.58358" lon="5.87604">
        <ele>887.9147949</ele>
        <time>2011-08-17T08:38:43Z</time>
      </trkpt>
      <trkpt lat="46.58363" lon="5.87608">
        <ele>885.5114746</ele>
        <time>2011-08-17T08:38:47Z</time>
      </trkpt>
      <trkpt lat="46.58369" lon="5.87611">
        <ele>884.550293</ele>
        <time>2011-08-17T08:38:51Z</time>
      </trkpt>
      <trkpt lat="46.58379" lon="5.87619">
        <ele>878.7824707</ele>
        <time>2011-08-17T08:38:57Z</time>
      </trkpt>
      <trkpt lat="46.58384" lon="5.87622">
        <ele>877.8210449</ele>
        <time>2011-08-17T08:38:59Z</time>
      </trkpt>
      <trkpt lat="46.58396" lon="5.87625">
        <ele>873.4951172</ele>
        <time>2011-08-17T08:39:04Z</time>
      </trkpt>
      <trkpt lat="46.58402" lon="5.87627">
        <ele>872.0529785</ele>
        <time>2011-08-17T08:39:08Z</time>
      </trkpt>
      <trkpt lat="46.5841" lon="5.87636">
        <ele>868.2077637</ele>
        <time>2011-08-17T08:39:15Z</time>
      </trkpt>
      <trkpt lat="46.58414" lon="5.87639">
        <ele>865.3239746</ele>
        <time>2011-08-17T08:39:19Z</time>
      </trkpt>
      <trkpt lat="46.58422" lon="5.87632">
        <ele>868.2077637</ele>
        <time>2011-08-17T08:39:24Z</time>
      </trkpt>
      <trkpt lat="46.58429" lon="5.87629">
        <ele>871.5722656</ele>
        <time>2011-08-17T08:39:28Z</time>
      </trkpt>
      <trkpt lat="46.58434" lon="5.87618">
        <ele>876.8598633</ele>
        <time>2011-08-17T08:39:33Z</time>
      </trkpt>
      <trkpt lat="46.58439" lon="5.87619">
        <ele>875.8981934</ele>
        <time>2011-08-17T08:39:36Z</time>
      </trkpt>
      <trkpt lat="46.5845" lon="5.8762">
        <ele>878.7824707</ele>
        <time>2011-08-17T08:39:43Z</time>
      </trkpt>
      <trkpt lat="46.58453" lon="5.8762">
        <ele>878.3017578</ele>
        <time>2011-08-17T08:39:46Z</time>
      </trkpt>
      <trkpt lat="46.58457" lon="5.87618">
        <ele>879.7436523</ele>
        <time>2011-08-17T08:39:49Z</time>
      </trkpt>
      <trkpt lat="46.58462" lon="5.87616">
        <ele>878.3017578</ele>
        <time>2011-08-17T08:39:54Z</time>
      </trkpt>
      <trkpt lat="46.5847" lon="5.8762">
        <ele>876.3791504</ele>
        <time>2011-08-17T08:39:59Z</time>
      </trkpt>
      <trkpt lat="46.58479" lon="5.87617">
        <ele>876.3791504</ele>
        <time>2011-08-17T08:40:05Z</time>
      </trkpt>
      <trkpt lat="46.58481" lon="5.87614">
        <ele>877.3405762</ele>
        <time>2011-08-17T08:40:07Z</time>
      </trkpt>
      <trkpt lat="46.58486" lon="5.87611">
        <ele>879.7436523</ele>
        <time>2011-08-17T08:40:12Z</time>
      </trkpt>
      <trkpt lat="46.58494" lon="5.8761">
        <ele>880.7050781</ele>
        <time>2011-08-17T08:40:18Z</time>
      </trkpt>
      <trkpt lat="46.58496" lon="5.87611">
        <ele>879.2629395</ele>
        <time>2011-08-17T08:40:19Z</time>
      </trkpt>
      <trkpt lat="46.58504" lon="5.8762">
        <ele>873.4951172</ele>
        <time>2011-08-17T08:40:24Z</time>
      </trkpt>
      <trkpt lat="46.58511" lon="5.87626">
        <ele>868.6884766</ele>
        <time>2011-08-17T08:40:28Z</time>
      </trkpt>
      <trkpt lat="46.58522" lon="5.87637">
        <ele>859.0751953</ele>
        <time>2011-08-17T08:40:34Z</time>
      </trkpt>
      <trkpt lat="46.58529" lon="5.87643">
        <ele>854.7492676</ele>
        <time>2011-08-17T08:40:38Z</time>
      </trkpt>
      <trkpt lat="46.58534" lon="5.87646">
        <ele>850.9040527</ele>
        <time>2011-08-17T08:40:42Z</time>
      </trkpt>
      <trkpt lat="46.58539" lon="5.87646">
        <ele>849.4621582</ele>
        <time>2011-08-17T08:40:46Z</time>
      </trkpt>
      <trkpt lat="46.58546" lon="5.87646">
        <ele>847.0588379</ele>
        <time>2011-08-17T08:40:50Z</time>
      </trkpt>
      <trkpt lat="46.58557" lon="5.87645">
        <ele>846.5783691</ele>
        <time>2011-08-17T08:40:56Z</time>
      </trkpt>
      <trkpt lat="46.58564" lon="5.87644">
        <ele>845.6169434</ele>
        <time>2011-08-17T08:41:00Z</time>
      </trkpt>
      <trkpt lat="46.58573" lon="5.87646">
        <ele>842.7329102</ele>
        <time>2011-08-17T08:41:06Z</time>
      </trkpt>
      <trkpt lat="46.58581" lon="5.87647">
        <ele>839.848877</ele>
        <time>2011-08-17T08:41:11Z</time>
      </trkpt>
      <trkpt lat="46.58586" lon="5.87641">
        <ele>840.3295898</ele>
        <time>2011-08-17T08:41:16Z</time>
      </trkpt>
      <trkpt lat="46.58592" lon="5.87624">
        <ele>845.6169434</ele>
        <time>2011-08-17T08:41:21Z</time>
      </trkpt>
      <trkpt lat="46.58594" lon="5.87621">
        <ele>848.0202637</ele>
        <time>2011-08-17T08:41:23Z</time>
      </trkpt>
      <trkpt lat="46.58599" lon="5.87626">
        <ele>850.423584</ele>
        <time>2011-08-17T08:41:28Z</time>
      </trkpt>
      <trkpt lat="46.58596" lon="5.87628">
        <ele>850.9040527</ele>
        <time>2011-08-17T08:41:32Z</time>
      </trkpt>
      <trkpt lat="46.58582" lon="5.87621">
        <ele>849.9428711</ele>
        <time>2011-08-17T08:41:40Z</time>
      </trkpt>
      <trkpt lat="46.58578" lon="5.87616">
        <ele>848.5007324</ele>
        <time>2011-08-17T08:41:45Z</time>
      </trkpt>
      <trkpt lat="46.58575" lon="5.87612">
        <ele>850.423584</ele>
        <time>2011-08-17T08:41:47Z</time>
      </trkpt>
      <trkpt lat="46.58565" lon="5.87595">
        <ele>851.8654785</ele>
        <time>2011-08-17T08:41:54Z</time>
      </trkpt>
      <trkpt lat="46.58561" lon="5.87592">
        <ele>844.1750488</ele>
        <time>2011-08-17T08:41:59Z</time>
      </trkpt>
      <trkpt lat="46.58554" lon="5.87587">
        <ele>845.6169434</ele>
        <time>2011-08-17T08:42:04Z</time>
      </trkpt>
      <trkpt lat="46.58546" lon="5.87574">
        <ele>849.4621582</ele>
        <time>2011-08-17T08:42:11Z</time>
      </trkpt>
      <trkpt lat="46.58539" lon="5.87568">
        <ele>852.3459473</ele>
        <time>2011-08-17T08:42:16Z</time>
      </trkpt>
      <trkpt lat="46.58538" lon="5.87568">
        <ele>853.307373</ele>
        <time>2011-08-17T08:42:17Z</time>
      </trkpt>
      <trkpt lat="46.58527" lon="5.87557">
        <ele>857.1525879</ele>
        <time>2011-08-17T08:42:23Z</time>
      </trkpt>
      <trkpt lat="46.5852" lon="5.87563">
        <ele>853.7880859</ele>
        <time>2011-08-17T08:42:28Z</time>
      </trkpt>
      <trkpt lat="46.58509" lon="5.87566">
        <ele>862.4399414</ele>
        <time>2011-08-17T08:42:35Z</time>
      </trkpt>
      <trkpt lat="46.58503" lon="5.87569">
        <ele>861.4787598</ele>
        <time>2011-08-17T08:42:38Z</time>
      </trkpt>
      <trkpt lat="46.58493" lon="5.87563">
        <ele>861.9594727</ele>
        <time>2011-08-17T08:42:44Z</time>
      </trkpt>
      <trkpt lat="46.58483" lon="5.8756">
        <ele>859.5559082</ele>
        <time>2011-08-17T08:42:50Z</time>
      </trkpt>
      <trkpt lat="46.58477" lon="5.87566">
        <ele>855.7106934</ele>
        <time>2011-08-17T08:42:55Z</time>
      </trkpt>
      <trkpt lat="46.58474" lon="5.87569">
        <ele>853.7880859</ele>
        <time>2011-08-17T08:42:57Z</time>
      </trkpt>
      <trkpt lat="46.58468" lon="5.87567">
        <ele>852.3459473</ele>
        <time>2011-08-17T08:43:01Z</time>
      </trkpt>
      <trkpt lat="46.58455" lon="5.87558">
        <ele>853.307373</ele>
        <time>2011-08-17T08:43:07Z</time>
      </trkpt>
      <trkpt lat="46.5845" lon="5.87557">
        <ele>850.9040527</ele>
        <time>2011-08-17T08:43:12Z</time>
      </trkpt>
      <trkpt lat="46.58447" lon="5.87553">
        <ele>848.5007324</ele>
        <time>2011-08-17T08:43:14Z</time>
      </trkpt>
      <trkpt lat="46.58438" lon="5.87553">
        <ele>845.1362305</ele>
        <time>2011-08-17T08:43:19Z</time>
      </trkpt>
      <trkpt lat="46.5843" lon="5.87558">
        <ele>850.9040527</ele>
        <time>2011-08-17T08:43:25Z</time>
      </trkpt>
      <trkpt lat="46.58427" lon="5.87559">
        <ele>851.8654785</ele>
        <time>2011-08-17T08:43:27Z</time>
      </trkpt>
      <trkpt lat="46.58412" lon="5.87552">
        <ele>853.307373</ele>
        <time>2011-08-17T08:43:33Z</time>
      </trkpt>
      <trkpt lat="46.58402" lon="5.87548">
        <ele>854.2687988</ele>
        <time>2011-08-17T08:43:39Z</time>
      </trkpt>
      <trkpt lat="46.58391" lon="5.87549">
        <ele>858.5944824</ele>
        <time>2011-08-17T08:43:46Z</time>
      </trkpt>
      <trkpt lat="46.58386" lon="5.87548">
        <ele>860.9980469</ele>
        <time>2011-08-17T08:43:49Z</time>
      </trkpt>
      <trkpt lat="46.58379" lon="5.87546">
        <ele>860.517334</ele>
        <time>2011-08-17T08:43:54Z</time>
      </trkpt>
      <trkpt lat="46.58377" lon="5.87547">
        <ele>858.1140137</ele>
        <time>2011-08-17T08:43:55Z</time>
      </trkpt>
      <trkpt lat="46.5837" lon="5.87546">
        <ele>855.2299805</ele>
        <time>2011-08-17T08:43:59Z</time>
      </trkpt>
      <trkpt lat="46.58362" lon="5.87541">
        <ele>857.1525879</ele>
        <time>2011-08-17T08:44:03Z</time>
      </trkpt>
      <trkpt lat="46.58355" lon="5.87534">
        <ele>857.6333008</ele>
        <time>2011-08-17T08:44:07Z</time>
      </trkpt>
      <trkpt lat="46.58349" lon="5.87528">
        <ele>856.671875</ele>
        <time>2011-08-17T08:44:11Z</time>
      </trkpt>
      <trkpt lat="46.58344" lon="5.87524">
        <ele>856.1911621</ele>
        <time>2011-08-17T08:44:15Z</time>
      </trkpt>
      <trkpt lat="46.58333" lon="5.87501">
        <ele>873.4951172</ele>
        <time>2011-08-17T08:44:21Z</time>
      </trkpt>
      <trkpt lat="46.58328" lon="5.87502">
        <ele>866.7658691</ele>
        <time>2011-08-17T08:44:25Z</time>
      </trkpt>
      <trkpt lat="46.58323" lon="5.87502">
        <ele>861.4787598</ele>
        <time>2011-08-17T08:44:31Z</time>
      </trkpt>
      <trkpt lat="46.58318" lon="5.87499">
        <ele>856.1911621</ele>
        <time>2011-08-17T08:44:37Z</time>
      </trkpt>
      <trkpt lat="46.58311" lon="5.87493">
        <ele>857.6333008</ele>
        <time>2011-08-17T08:44:42Z</time>
      </trkpt>
      <trkpt lat="46.58304" lon="5.87487">
        <ele>860.9980469</ele>
        <time>2011-08-17T08:44:48Z</time>
      </trkpt>
      <trkpt lat="46.58302" lon="5.87482">
        <ele>864.8432617</ele>
        <time>2011-08-17T08:44:50Z</time>
      </trkpt>
      <trkpt lat="46.58294" lon="5.8747">
        <ele>867.7270508</ele>
        <time>2011-08-17T08:44:56Z</time>
      </trkpt>
      <trkpt lat="46.58293" lon="5.87469">
        <ele>867.7270508</ele>
        <time>2011-08-17T08:44:57Z</time>
      </trkpt>
      <trkpt lat="46.58288" lon="5.87461">
        <ele>864.3625488</ele>
        <time>2011-08-17T08:45:04Z</time>
      </trkpt>
      <trkpt lat="46.58284" lon="5.87454">
        <ele>861.9594727</ele>
        <time>2011-08-17T08:45:10Z</time>
      </trkpt>
      <trkpt lat="46.58281" lon="5.87449">
        <ele>860.517334</ele>
        <time>2011-08-17T08:45:13Z</time>
      </trkpt>
      <trkpt lat="46.58276" lon="5.87442">
        <ele>855.7106934</ele>
        <time>2011-08-17T08:45:20Z</time>
      </trkpt>
      <trkpt lat="46.58275" lon="5.87441">
        <ele>855.7106934</ele>
        <time>2011-08-17T08:45:22Z</time>
      </trkpt>
      <trkpt lat="46.5827" lon="5.87435">
        <ele>854.7492676</ele>
        <time>2011-08-17T08:45:26Z</time>
      </trkpt>
      <trkpt lat="46.58266" lon="5.87429">
        <ele>850.423584</ele>
        <time>2011-08-17T08:45:32Z</time>
      </trkpt>
      <trkpt lat="46.5826" lon="5.87421">
        <ele>849.9428711</ele>
        <time>2011-08-17T08:45:37Z</time>
      </trkpt>
      <trkpt lat="46.58258" lon="5.87416">
        <ele>851.8654785</ele>
        <time>2011-08-17T08:45:40Z</time>
      </trkpt>
      <trkpt lat="46.58254" lon="5.87406">
        <ele>855.2299805</ele>
        <time>2011-08-17T08:45:45Z</time>
      </trkpt>
      <trkpt lat="46.58252" lon="5.87404">
        <ele>856.671875</ele>
        <time>2011-08-17T08:45:47Z</time>
      </trkpt>
      <trkpt lat="46.58248" lon="5.87401">
        <ele>858.5944824</ele>
        <time>2011-08-17T08:45:50Z</time>
      </trkpt>
      <trkpt lat="46.58245" lon="5.87398">
        <ele>859.5559082</ele>
        <time>2011-08-17T08:45:53Z</time>
      </trkpt>
      <trkpt lat="46.58241" lon="5.87387">
        <ele>860.517334</ele>
        <time>2011-08-17T08:45:58Z</time>
      </trkpt>
      <trkpt lat="46.58238" lon="5.87373">
        <ele>860.0366211</ele>
        <time>2011-08-17T08:46:04Z</time>
      </trkpt>
      <trkpt lat="46.5823" lon="5.87358">
        <ele>856.671875</ele>
        <time>2011-08-17T08:46:12Z</time>
      </trkpt>
      <trkpt lat="46.58228" lon="5.87354">
        <ele>857.1525879</ele>
        <time>2011-08-17T08:46:14Z</time>
      </trkpt>
      <trkpt lat="46.5822" lon="5.87347">
        <ele>858.1140137</ele>
        <time>2011-08-17T08:46:20Z</time>
      </trkpt>
      <trkpt lat="46.58216" lon="5.87341">
        <ele>859.5559082</ele>
        <time>2011-08-17T08:46:25Z</time>
      </trkpt>
      <trkpt lat="46.58211" lon="5.87335">
        <ele>864.3625488</ele>
        <time>2011-08-17T08:46:30Z</time>
      </trkpt>
      <trkpt lat="46.58207" lon="5.8733">
        <ele>866.7658691</ele>
        <time>2011-08-17T08:46:33Z</time>
      </trkpt>
      <trkpt lat="46.58198" lon="5.87325">
        <ele>866.2851563</ele>
        <time>2011-08-17T08:46:38Z</time>
      </trkpt>
      <trkpt lat="46.58196" lon="5.87324">
        <ele>868.6884766</ele>
        <time>2011-08-17T08:46:40Z</time>
      </trkpt>
      <trkpt lat="46.58192" lon="5.87324">
        <ele>868.6884766</ele>
        <time>2011-08-17T08:46:42Z</time>
      </trkpt>
      <trkpt lat="46.5818" lon="5.87322">
        <ele>867.246582</ele>
        <time>2011-08-17T08:46:48Z</time>
      </trkpt>
      <trkpt lat="46.58179" lon="5.87322">
        <ele>867.246582</ele>
        <time>2011-08-17T08:46:49Z</time>
      </trkpt>
      <trkpt lat="46.58168" lon="5.87312">
        <ele>874.9370117</ele>
        <time>2011-08-17T08:46:57Z</time>
      </trkpt>
      <trkpt lat="46.58165" lon="5.87308">
        <ele>877.3405762</ele>
        <time>2011-08-17T08:47:00Z</time>
      </trkpt>
      <trkpt lat="46.58157" lon="5.87304">
        <ele>882.6276855</ele>
        <time>2011-08-17T08:47:06Z</time>
      </trkpt>
      <trkpt lat="46.58149" lon="5.87299">
        <ele>885.9921875</ele>
        <time>2011-08-17T08:47:12Z</time>
      </trkpt>
      <trkpt lat="46.58149" lon="5.87299">
        <ele>885.0310059</ele>
        <time>2011-08-17T08:47:13Z</time>
      </trkpt>
      <trkpt lat="46.58136" lon="5.87296">
        <ele>882.1469727</ele>
        <time>2011-08-17T08:47:19Z</time>
      </trkpt>
      <trkpt lat="46.58124" lon="5.87283">
        <ele>891.2792969</ele>
        <time>2011-08-17T08:47:24Z</time>
      </trkpt>
      <trkpt lat="46.58113" lon="5.87278">
        <ele>901.373291</ele>
        <time>2011-08-17T08:47:30Z</time>
      </trkpt>
      <trkpt lat="46.5811" lon="5.87276">
        <ele>902.8151855</ele>
        <time>2011-08-17T08:47:31Z</time>
      </trkpt>
      <trkpt lat="46.58103" lon="5.87278">
        <ele>903.2958984</ele>
        <time>2011-08-17T08:47:34Z</time>
      </trkpt>
      <trkpt lat="46.58091" lon="5.87271">
        <ele>904.737793</ele>
        <time>2011-08-17T08:47:40Z</time>
      </trkpt>
      <trkpt lat="46.58089" lon="5.8727">
        <ele>904.737793</ele>
        <time>2011-08-17T08:47:41Z</time>
      </trkpt>
      <trkpt lat="46.58084" lon="5.87264">
        <ele>911.4672852</ele>
        <time>2011-08-17T08:47:47Z</time>
      </trkpt>
      <trkpt lat="46.58081" lon="5.87261">
        <ele>905.6992188</ele>
        <time>2011-08-17T08:47:52Z</time>
      </trkpt>
      <trkpt lat="46.58073" lon="5.87254">
        <ele>908.583252</ele>
        <time>2011-08-17T08:47:57Z</time>
      </trkpt>
      <trkpt lat="46.58071" lon="5.8725">
        <ele>911.4672852</ele>
        <time>2011-08-17T08:47:59Z</time>
      </trkpt>
      <trkpt lat="46.58062" lon="5.87242">
        <ele>920.5996094</ele>
        <time>2011-08-17T08:48:05Z</time>
      </trkpt>
      <trkpt lat="46.58058" lon="5.87239">
        <ele>920.5996094</ele>
        <time>2011-08-17T08:48:07Z</time>
      </trkpt>
      <trkpt lat="46.58051" lon="5.87228">
        <ele>923.0029297</ele>
        <time>2011-08-17T08:48:12Z</time>
      </trkpt>
      <trkpt lat="46.58044" lon="5.8722">
        <ele>920.1188965</ele>
        <time>2011-08-17T08:48:16Z</time>
      </trkpt>
      <trkpt lat="46.58037" lon="5.87216">
        <ele>919.1577148</ele>
        <time>2011-08-17T08:48:19Z</time>
      </trkpt>
      <trkpt lat="46.58025" lon="5.87209">
        <ele>917.2351074</ele>
        <time>2011-08-17T08:48:24Z</time>
      </trkpt>
      <trkpt lat="46.58022" lon="5.87211">
        <ele>916.2736816</ele>
        <time>2011-08-17T08:48:26Z</time>
      </trkpt>
      <trkpt lat="46.58012" lon="5.87211">
        <ele>918.677002</ele>
        <time>2011-08-17T08:48:32Z</time>
      </trkpt>
      <trkpt lat="46.58002" lon="5.87212">
        <ele>918.677002</ele>
        <time>2011-08-17T08:48:39Z</time>
      </trkpt>
      <trkpt lat="46.57989" lon="5.87206">
        <ele>917.7155762</ele>
        <time>2011-08-17T08:48:48Z</time>
      </trkpt>
      <trkpt lat="46.57986" lon="5.87205">
        <ele>919.6384277</ele>
        <time>2011-08-17T08:48:50Z</time>
      </trkpt>
      <trkpt lat="46.57977" lon="5.87202">
        <ele>922.5222168</ele>
        <time>2011-08-17T08:48:55Z</time>
      </trkpt>
      <trkpt lat="46.5797" lon="5.87202">
        <ele>920.5996094</ele>
        <time>2011-08-17T08:49:00Z</time>
      </trkpt>
      <trkpt lat="46.57969" lon="5.87203">
        <ele>921.0803223</ele>
        <time>2011-08-17T08:49:01Z</time>
      </trkpt>
      <trkpt lat="46.57964" lon="5.872">
        <ele>920.5996094</ele>
        <time>2011-08-17T08:49:04Z</time>
      </trkpt>
      <trkpt lat="46.57962" lon="5.87179">
        <ele>921.560791</ele>
        <time>2011-08-17T08:49:10Z</time>
      </trkpt>
      <trkpt lat="46.57962" lon="5.87171">
        <ele>923.4836426</ele>
        <time>2011-08-17T08:49:12Z</time>
      </trkpt>
      <trkpt lat="46.57968" lon="5.87164">
        <ele>914.8317871</ele>
        <time>2011-08-17T08:49:17Z</time>
      </trkpt>
      <trkpt lat="46.57971" lon="5.87159">
        <ele>912.9091797</ele>
        <time>2011-08-17T08:49:20Z</time>
      </trkpt>
      <trkpt lat="46.5798" lon="5.8715">
        <ele>911.947998</ele>
        <time>2011-08-17T08:49:26Z</time>
      </trkpt>
      <trkpt lat="46.57985" lon="5.87144">
        <ele>913.8703613</ele>
        <time>2011-08-17T08:49:30Z</time>
      </trkpt>
      <trkpt lat="46.57992" lon="5.87137">
        <ele>913.8703613</ele>
        <time>2011-08-17T08:49:35Z</time>
      </trkpt>
      <trkpt lat="46.58002" lon="5.87132">
        <ele>913.3898926</ele>
        <time>2011-08-17T08:49:40Z</time>
      </trkpt>
      <trkpt lat="46.58007" lon="5.87127">
        <ele>912.9091797</ele>
        <time>2011-08-17T08:49:43Z</time>
      </trkpt>
      <trkpt lat="46.58011" lon="5.87114">
        <ele>914.8317871</ele>
        <time>2011-08-17T08:49:49Z</time>
      </trkpt>
      <trkpt lat="46.58014" lon="5.87107">
        <ele>913.8703613</ele>
        <time>2011-08-17T08:49:52Z</time>
      </trkpt>
      <trkpt lat="46.58021" lon="5.87092">
        <ele>910.9865723</ele>
        <time>2011-08-17T08:49:58Z</time>
      </trkpt>
      <trkpt lat="46.58029" lon="5.87086">
        <ele>913.3898926</ele>
        <time>2011-08-17T08:50:04Z</time>
      </trkpt>
      <trkpt lat="46.5803" lon="5.87085">
        <ele>913.3898926</ele>
        <time>2011-08-17T08:50:05Z</time>
      </trkpt>
      <trkpt lat="46.58038" lon="5.87081">
        <ele>908.1027832</ele>
        <time>2011-08-17T08:50:09Z</time>
      </trkpt>
      <trkpt lat="46.5805" lon="5.87083">
        <ele>905.2185059</ele>
        <time>2011-08-17T08:50:14Z</time>
      </trkpt>
      <trkpt lat="46.58061" lon="5.8709">
        <ele>915.7932129</ele>
        <time>2011-08-17T08:50:20Z</time>
      </trkpt>
      <trkpt lat="46.5807" lon="5.87088">
        <ele>920.1188965</ele>
        <time>2011-08-17T08:50:25Z</time>
      </trkpt>
      <trkpt lat="46.58077" lon="5.8708">
        <ele>918.1962891</ele>
        <time>2011-08-17T08:50:31Z</time>
      </trkpt>
      <trkpt lat="46.58083" lon="5.87073">
        <ele>919.1577148</ele>
        <time>2011-08-17T08:50:36Z</time>
      </trkpt>
      <trkpt lat="46.58086" lon="5.87062">
        <ele>917.2351074</ele>
        <time>2011-08-17T08:50:41Z</time>
      </trkpt>
      <trkpt lat="46.5809" lon="5.87048">
        <ele>913.3898926</ele>
        <time>2011-08-17T08:50:47Z</time>
      </trkpt>
      <trkpt lat="46.58093" lon="5.87035">
        <ele>913.8703613</ele>
        <time>2011-08-17T08:50:52Z</time>
      </trkpt>
      <trkpt lat="46.58102" lon="5.87023">
        <ele>920.1188965</ele>
        <time>2011-08-17T08:50:59Z</time>
      </trkpt>
      <trkpt lat="46.58109" lon="5.87021">
        <ele>920.1188965</ele>
        <time>2011-08-17T08:51:04Z</time>
      </trkpt>
      <trkpt lat="46.58112" lon="5.8702">
        <ele>922.5222168</ele>
        <time>2011-08-17T08:51:06Z</time>
      </trkpt>
      <trkpt lat="46.58118" lon="5.8702">
        <ele>926.3676758</ele>
        <time>2011-08-17T08:51:10Z</time>
      </trkpt>
      <trkpt lat="46.58133" lon="5.87033">
        <ele>937.9033203</ele>
        <time>2011-08-17T08:51:16Z</time>
      </trkpt>
      <trkpt lat="46.58141" lon="5.87037">
        <ele>935.0195313</ele>
        <time>2011-08-17T08:51:20Z</time>
      </trkpt>
      <trkpt lat="46.58149" lon="5.87042">
        <ele>933.5773926</ele>
        <time>2011-08-17T08:51:25Z</time>
      </trkpt>
      <trkpt lat="46.5815" lon="5.87042">
        <ele>932.6162109</ele>
        <time>2011-08-17T08:51:26Z</time>
      </trkpt>
      <trkpt lat="46.58155" lon="5.87042">
        <ele>930.2128906</ele>
        <time>2011-08-17T08:51:29Z</time>
      </trkpt>
      <trkpt lat="46.58164" lon="5.87038">
        <ele>926.3676758</ele>
        <time>2011-08-17T08:51:36Z</time>
      </trkpt>
      <trkpt lat="46.58169" lon="5.87028">
        <ele>923.0029297</ele>
        <time>2011-08-17T08:51:42Z</time>
      </trkpt>
      <trkpt lat="46.58169" lon="5.87026">
        <ele>922.0415039</ele>
        <time>2011-08-17T08:51:43Z</time>
      </trkpt>
      <trkpt lat="46.5817" lon="5.8702">
        <ele>922.0415039</ele>
        <time>2011-08-17T08:51:46Z</time>
      </trkpt>
      <trkpt lat="46.58173" lon="5.8701">
        <ele>928.2902832</ele>
        <time>2011-08-17T08:51:52Z</time>
      </trkpt>
      <trkpt lat="46.58174" lon="5.87007">
        <ele>930.2128906</ele>
        <time>2011-08-17T08:51:54Z</time>
      </trkpt>
      <trkpt lat="46.58173" lon="5.8699">
        <ele>929.2514648</ele>
        <time>2011-08-17T08:52:02Z</time>
      </trkpt>
      <trkpt lat="46.58175" lon="5.86981">
        <ele>927.8095703</ele>
        <time>2011-08-17T08:52:06Z</time>
      </trkpt>
      <trkpt lat="46.58179" lon="5.86972">
        <ele>928.7709961</ele>
        <time>2011-08-17T08:52:11Z</time>
      </trkpt>
      <trkpt lat="46.58186" lon="5.86963">
        <ele>930.2128906</ele>
        <time>2011-08-17T08:52:16Z</time>
      </trkpt>
      <trkpt lat="46.58188" lon="5.86961">
        <ele>931.6547852</ele>
        <time>2011-08-17T08:52:18Z</time>
      </trkpt>
      <trkpt lat="46.58195" lon="5.86952">
        <ele>927.3291016</ele>
        <time>2011-08-17T08:52:23Z</time>
      </trkpt>
      <trkpt lat="46.58199" lon="5.86944">
        <ele>924.4450684</ele>
        <time>2011-08-17T08:52:27Z</time>
      </trkpt>
      <trkpt lat="46.58208" lon="5.86929">
        <ele>922.5222168</ele>
        <time>2011-08-17T08:52:34Z</time>
      </trkpt>
      <trkpt lat="46.58211" lon="5.86919">
        <ele>926.8483887</ele>
        <time>2011-08-17T08:52:39Z</time>
      </trkpt>
      <trkpt lat="46.58217" lon="5.86912">
        <ele>928.2902832</ele>
        <time>2011-08-17T08:52:43Z</time>
      </trkpt>
      <trkpt lat="46.58224" lon="5.869">
        <ele>932.135498</ele>
        <time>2011-08-17T08:52:48Z</time>
      </trkpt>
      <trkpt lat="46.58227" lon="5.86892">
        <ele>931.1743164</ele>
        <time>2011-08-17T08:52:52Z</time>
      </trkpt>
      <trkpt lat="46.58232" lon="5.8688">
        <ele>930.6936035</ele>
        <time>2011-08-17T08:52:58Z</time>
      </trkpt>
      <trkpt lat="46.58236" lon="5.86876">
        <ele>931.1743164</ele>
        <time>2011-08-17T08:53:00Z</time>
      </trkpt>
      <trkpt lat="46.58241" lon="5.86869">
        <ele>933.5773926</ele>
        <time>2011-08-17T08:53:04Z</time>
      </trkpt>
      <trkpt lat="46.58248" lon="5.86862">
        <ele>935.5</ele>
        <time>2011-08-17T08:53:08Z</time>
      </trkpt>
      <trkpt lat="46.58253" lon="5.86853">
        <ele>936.9418945</ele>
        <time>2011-08-17T08:53:12Z</time>
      </trkpt>
      <trkpt lat="46.58255" lon="5.86848">
        <ele>936.9418945</ele>
        <time>2011-08-17T08:53:14Z</time>
      </trkpt>
      <trkpt lat="46.5826" lon="5.86837">
        <ele>936.4614258</ele>
        <time>2011-08-17T08:53:19Z</time>
      </trkpt>
      <trkpt lat="46.58267" lon="5.86825">
        <ele>935.5</ele>
        <time>2011-08-17T08:53:25Z</time>
      </trkpt>
      <trkpt lat="46.58273" lon="5.86816">
        <ele>934.5388184</ele>
        <time>2011-08-17T08:53:31Z</time>
      </trkpt>
      <trkpt lat="46.58281" lon="5.8681">
        <ele>933.5773926</ele>
        <time>2011-08-17T08:53:37Z</time>
      </trkpt>
      <trkpt lat="46.58287" lon="5.86813">
        <ele>932.135498</ele>
        <time>2011-08-17T08:53:41Z</time>
      </trkpt>
      <trkpt lat="46.58293" lon="5.86819">
        <ele>929.2514648</ele>
        <time>2011-08-17T08:53:46Z</time>
      </trkpt>
      <trkpt lat="46.58296" lon="5.86823">
        <ele>929.2514648</ele>
        <time>2011-08-17T08:53:49Z</time>
      </trkpt>
      <trkpt lat="46.58299" lon="5.86834">
        <ele>928.2902832</ele>
        <time>2011-08-17T08:53:55Z</time>
      </trkpt>
      <trkpt lat="46.583" lon="5.86837">
        <ele>928.2902832</ele>
        <time>2011-08-17T08:53:57Z</time>
      </trkpt>
      <trkpt lat="46.58304" lon="5.86842">
        <ele>928.7709961</ele>
        <time>2011-08-17T08:54:03Z</time>
      </trkpt>
      <trkpt lat="46.58305" lon="5.86843">
        <ele>929.2514648</ele>
        <time>2011-08-17T08:54:14Z</time>
      </trkpt>
      <trkpt lat="46.583" lon="5.86846">
        <ele>922.5222168</ele>
        <time>2011-08-17T08:54:36Z</time>
      </trkpt>
      <trkpt lat="46.58304" lon="5.86846">
        <ele>925.40625</ele>
        <time>2011-08-17T08:54:46Z</time>
      </trkpt>
      <trkpt lat="46.5831" lon="5.86846">
        <ele>923.9641113</ele>
        <time>2011-08-17T08:54:56Z</time>
      </trkpt>
      <trkpt lat="46.58311" lon="5.86847">
        <ele>924.9257813</ele>
        <time>2011-08-17T08:55:06Z</time>
      </trkpt>
      <trkpt lat="46.58312" lon="5.86846">
        <ele>923.4836426</ele>
        <time>2011-08-17T08:55:19Z</time>
      </trkpt>
      <trkpt lat="46.58309" lon="5.86845">
        <ele>924.4450684</ele>
        <time>2011-08-17T08:55:27Z</time>
      </trkpt>
      <trkpt lat="46.58304" lon="5.8684">
        <ele>923.4836426</ele>
        <time>2011-08-17T08:55:32Z</time>
      </trkpt>
      <trkpt lat="46.583" lon="5.86828">
        <ele>925.40625</ele>
        <time>2011-08-17T08:55:40Z</time>
      </trkpt>
      <trkpt lat="46.58297" lon="5.86821">
        <ele>924.4450684</ele>
        <time>2011-08-17T08:55:44Z</time>
      </trkpt>
      <trkpt lat="46.58288" lon="5.86811">
        <ele>925.8869629</ele>
        <time>2011-08-17T08:55:50Z</time>
      </trkpt>
      <trkpt lat="46.58289" lon="5.86798">
        <ele>930.2128906</ele>
        <time>2011-08-17T08:55:54Z</time>
      </trkpt>
      <trkpt lat="46.5829" lon="5.86793">
        <ele>931.6547852</ele>
        <time>2011-08-17T08:55:56Z</time>
      </trkpt>
      <trkpt lat="46.58293" lon="5.86778">
        <ele>936.9418945</ele>
        <time>2011-08-17T08:56:01Z</time>
      </trkpt>
      <trkpt lat="46.58292" lon="5.86769">
        <ele>938.8647461</ele>
        <time>2011-08-17T08:56:06Z</time>
      </trkpt>
      <trkpt lat="46.58289" lon="5.86763">
        <ele>939.8259277</ele>
        <time>2011-08-17T08:56:09Z</time>
      </trkpt>
      <trkpt lat="46.58284" lon="5.8676">
        <ele>944.1520996</ele>
        <time>2011-08-17T08:56:13Z</time>
      </trkpt>
      <trkpt lat="46.58275" lon="5.86761">
        <ele>941.2680664</ele>
        <time>2011-08-17T08:56:18Z</time>
      </trkpt>
      <trkpt lat="46.58271" lon="5.86762">
        <ele>938.3840332</ele>
        <time>2011-08-17T08:56:20Z</time>
      </trkpt>
      <trkpt lat="46.58262" lon="5.8677">
        <ele>934.0581055</ele>
        <time>2011-08-17T08:56:27Z</time>
      </trkpt>
      <trkpt lat="46.58254" lon="5.8678">
        <ele>933.5773926</ele>
        <time>2011-08-17T08:56:33Z</time>
      </trkpt>
      <trkpt lat="46.58249" lon="5.86785">
        <ele>934.5388184</ele>
        <time>2011-08-17T08:56:36Z</time>
      </trkpt>
      <trkpt lat="46.58243" lon="5.86787">
        <ele>937.9033203</ele>
        <time>2011-08-17T08:56:42Z</time>
      </trkpt>
      <trkpt lat="46.58232" lon="5.86783">
        <ele>940.3068848</ele>
        <time>2011-08-17T08:56:49Z</time>
      </trkpt>
      <trkpt lat="46.58227" lon="5.86775">
        <ele>941.2680664</ele>
        <time>2011-08-17T08:56:55Z</time>
      </trkpt>
      <trkpt lat="46.58226" lon="5.86769">
        <ele>942.7102051</ele>
        <time>2011-08-17T08:56:58Z</time>
      </trkpt>
      <trkpt lat="46.58225" lon="5.86764">
        <ele>944.1520996</ele>
        <time>2011-08-17T08:57:00Z</time>
      </trkpt>
      <trkpt lat="46.58227" lon="5.86751">
        <ele>946.074707</ele>
        <time>2011-08-17T08:57:06Z</time>
      </trkpt>
      <trkpt lat="46.5823" lon="5.86744">
        <ele>947.5166016</ele>
        <time>2011-08-17T08:57:10Z</time>
      </trkpt>
      <trkpt lat="46.58234" lon="5.86731">
        <ele>947.5166016</ele>
        <time>2011-08-17T08:57:16Z</time>
      </trkpt>
      <trkpt lat="46.58235" lon="5.86727">
        <ele>947.9973145</ele>
        <time>2011-08-17T08:57:18Z</time>
      </trkpt>
      <trkpt lat="46.58236" lon="5.86713">
        <ele>950.4006348</ele>
        <time>2011-08-17T08:57:24Z</time>
      </trkpt>
      <trkpt lat="46.58236" lon="5.86711">
        <ele>949.9199219</ele>
        <time>2011-08-17T08:57:25Z</time>
      </trkpt>
      <trkpt lat="46.58235" lon="5.86696">
        <ele>950.8811035</ele>
        <time>2011-08-17T08:57:31Z</time>
      </trkpt>
      <trkpt lat="46.58235" lon="5.86693">
        <ele>951.3618164</ele>
        <time>2011-08-17T08:57:32Z</time>
      </trkpt>
      <trkpt lat="46.58236" lon="5.86681">
        <ele>951.8425293</ele>
        <time>2011-08-17T08:57:38Z</time>
      </trkpt>
      <trkpt lat="46.58236" lon="5.86672">
        <ele>951.3618164</ele>
        <time>2011-08-17T08:57:42Z</time>
      </trkpt>
      <trkpt lat="46.58232" lon="5.86664">
        <ele>951.8425293</ele>
        <time>2011-08-17T08:57:47Z</time>
      </trkpt>
      <trkpt lat="46.58223" lon="5.86658">
        <ele>949.9199219</ele>
        <time>2011-08-17T08:57:53Z</time>
      </trkpt>
      <trkpt lat="46.58215" lon="5.86653">
        <ele>948.9584961</ele>
        <time>2011-08-17T08:57:58Z</time>
      </trkpt>
      <trkpt lat="46.58206" lon="5.8665">
        <ele>950.8811035</ele>
        <time>2011-08-17T08:58:04Z</time>
      </trkpt>
      <trkpt lat="46.58197" lon="5.86646">
        <ele>952.322998</ele>
        <time>2011-08-17T08:58:09Z</time>
      </trkpt>
      <trkpt lat="46.58188" lon="5.8664">
        <ele>953.7651367</ele>
        <time>2011-08-17T08:58:14Z</time>
      </trkpt>
      <trkpt lat="46.58184" lon="5.86638">
        <ele>954.7263184</ele>
        <time>2011-08-17T08:58:16Z</time>
      </trkpt>
      <trkpt lat="46.5817" lon="5.86634">
        <ele>953.7651367</ele>
        <time>2011-08-17T08:58:23Z</time>
      </trkpt>
      <trkpt lat="46.58156" lon="5.86631">
        <ele>951.3618164</ele>
        <time>2011-08-17T08:58:29Z</time>
      </trkpt>
      <trkpt lat="46.58147" lon="5.8663">
        <ele>953.7651367</ele>
        <time>2011-08-17T08:58:33Z</time>
      </trkpt>
      <trkpt lat="46.58139" lon="5.86627">
        <ele>952.322998</ele>
        <time>2011-08-17T08:58:38Z</time>
      </trkpt>
      <trkpt lat="46.58132" lon="5.86624">
        <ele>952.322998</ele>
        <time>2011-08-17T08:58:41Z</time>
      </trkpt>
      <trkpt lat="46.58118" lon="5.86624">
        <ele>949.439209</ele>
        <time>2011-08-17T08:58:47Z</time>
      </trkpt>
      <trkpt lat="46.58105" lon="5.86627">
        <ele>949.9199219</ele>
        <time>2011-08-17T08:58:52Z</time>
      </trkpt>
      <trkpt lat="46.58092" lon="5.86626">
        <ele>948.4777832</ele>
        <time>2011-08-17T08:58:57Z</time>
      </trkpt>
      <trkpt lat="46.5808" lon="5.86624">
        <ele>950.8811035</ele>
        <time>2011-08-17T08:59:03Z</time>
      </trkpt>
      <trkpt lat="46.58067" lon="5.86617">
        <ele>949.9199219</ele>
        <time>2011-08-17T08:59:08Z</time>
      </trkpt>
      <trkpt lat="46.58053" lon="5.86612">
        <ele>946.074707</ele>
        <time>2011-08-17T08:59:13Z</time>
      </trkpt>
      <trkpt lat="46.58042" lon="5.86605">
        <ele>948.4777832</ele>
        <time>2011-08-17T08:59:18Z</time>
      </trkpt>
      <trkpt lat="46.58031" lon="5.86598">
        <ele>946.074707</ele>
        <time>2011-08-17T08:59:23Z</time>
      </trkpt>
      <trkpt lat="46.58023" lon="5.86594">
        <ele>945.5939941</ele>
        <time>2011-08-17T08:59:26Z</time>
      </trkpt>
      <trkpt lat="46.5801" lon="5.86597">
        <ele>945.5939941</ele>
        <time>2011-08-17T08:59:31Z</time>
      </trkpt>
      <trkpt lat="46.57997" lon="5.86599">
        <ele>946.5554199</ele>
        <time>2011-08-17T08:59:36Z</time>
      </trkpt>
      <trkpt lat="46.57995" lon="5.86599">
        <ele>946.074707</ele>
        <time>2011-08-17T08:59:37Z</time>
      </trkpt>
      <trkpt lat="46.5798" lon="5.86599">
        <ele>945.1132813</ele>
        <time>2011-08-17T08:59:43Z</time>
      </trkpt>
      <trkpt lat="46.57965" lon="5.86595">
        <ele>943.1906738</ele>
        <time>2011-08-17T08:59:48Z</time>
      </trkpt>
      <trkpt lat="46.57954" lon="5.86587">
        <ele>939.8259277</ele>
        <time>2011-08-17T08:59:52Z</time>
      </trkpt>
      <trkpt lat="46.57942" lon="5.86569">
        <ele>938.3840332</ele>
        <time>2011-08-17T08:59:58Z</time>
      </trkpt>
      <trkpt lat="46.57931" lon="5.86544">
        <ele>944.1520996</ele>
        <time>2011-08-17T09:00:06Z</time>
      </trkpt>
      <trkpt lat="46.57926" lon="5.86538">
        <ele>952.322998</ele>
        <time>2011-08-17T09:00:12Z</time>
      </trkpt>
      <trkpt lat="46.57927" lon="5.86537">
        <ele>955.6877441</ele>
        <time>2011-08-17T09:00:15Z</time>
      </trkpt>
      <trkpt lat="46.5792" lon="5.86532">
        <ele>953.2844238</ele>
        <time>2011-08-17T09:00:20Z</time>
      </trkpt>
      <trkpt lat="46.57919" lon="5.86531">
        <ele>953.2844238</ele>
        <time>2011-08-17T09:00:21Z</time>
      </trkpt>
      <trkpt lat="46.57905" lon="5.86522">
        <ele>947.9973145</ele>
        <time>2011-08-17T09:00:27Z</time>
      </trkpt>
      <trkpt lat="46.57892" lon="5.86524">
        <ele>942.2294922</ele>
        <time>2011-08-17T09:00:32Z</time>
      </trkpt>
      <trkpt lat="46.57876" lon="5.86539">
        <ele>942.2294922</ele>
        <time>2011-08-17T09:00:41Z</time>
      </trkpt>
      <trkpt lat="46.57866" lon="5.86551">
        <ele>945.5939941</ele>
        <time>2011-08-17T09:00:46Z</time>
      </trkpt>
      <trkpt lat="46.57858" lon="5.8656">
        <ele>949.9199219</ele>
        <time>2011-08-17T09:00:50Z</time>
      </trkpt>
      <trkpt lat="46.57843" lon="5.86574">
        <ele>956.6491699</ele>
        <time>2011-08-17T09:00:57Z</time>
      </trkpt>
      <trkpt lat="46.57835" lon="5.86583">
        <ele>957.6105957</ele>
        <time>2011-08-17T09:01:03Z</time>
      </trkpt>
      <trkpt lat="46.57834" lon="5.86583">
        <ele>956.168457</ele>
        <time>2011-08-17T09:01:04Z</time>
      </trkpt>
      <trkpt lat="46.57827" lon="5.86582">
        <ele>949.439209</ele>
        <time>2011-08-17T09:01:11Z</time>
      </trkpt>
      <trkpt lat="46.57826" lon="5.86583">
        <ele>947.9973145</ele>
        <time>2011-08-17T09:01:15Z</time>
      </trkpt>
      <trkpt lat="46.5782" lon="5.86577">
        <ele>950.8811035</ele>
        <time>2011-08-17T09:01:22Z</time>
      </trkpt>
      <trkpt lat="46.57815" lon="5.8657">
        <ele>956.168457</ele>
        <time>2011-08-17T09:01:29Z</time>
      </trkpt>
      <trkpt lat="46.57813" lon="5.86566">
        <ele>958.5717773</ele>
        <time>2011-08-17T09:01:35Z</time>
      </trkpt>
      <trkpt lat="46.57812" lon="5.86565">
        <ele>960.0136719</ele>
        <time>2011-08-17T09:01:36Z</time>
      </trkpt>
      <trkpt lat="46.57813" lon="5.86557">
        <ele>961.9365234</ele>
        <time>2011-08-17T09:01:40Z</time>
      </trkpt>
      <trkpt lat="46.57813" lon="5.86555">
        <ele>962.8977051</ele>
        <time>2011-08-17T09:01:42Z</time>
      </trkpt>
      <trkpt lat="46.57806" lon="5.86544">
        <ele>959.5332031</ele>
        <time>2011-08-17T09:01:48Z</time>
      </trkpt>
      <trkpt lat="46.57805" lon="5.86542">
        <ele>959.0524902</ele>
        <time>2011-08-17T09:01:49Z</time>
      </trkpt>
      <trkpt lat="46.57801" lon="5.86533">
        <ele>947.0358887</ele>
        <time>2011-08-17T09:01:56Z</time>
      </trkpt>
      <trkpt lat="46.57799" lon="5.86521">
        <ele>946.5554199</ele>
        <time>2011-08-17T09:02:02Z</time>
      </trkpt>
      <trkpt lat="46.578" lon="5.86518">
        <ele>947.5166016</ele>
        <time>2011-08-17T09:02:06Z</time>
      </trkpt>
      <trkpt lat="46.57798" lon="5.86506">
        <ele>946.5554199</ele>
        <time>2011-08-17T09:02:12Z</time>
      </trkpt>
      <trkpt lat="46.57798" lon="5.86499">
        <ele>947.5166016</ele>
        <time>2011-08-17T09:02:15Z</time>
      </trkpt>
      <trkpt lat="46.57798" lon="5.8649">
        <ele>946.074707</ele>
        <time>2011-08-17T09:02:19Z</time>
      </trkpt>
      <trkpt lat="46.57797" lon="5.86488">
        <ele>947.9973145</ele>
        <time>2011-08-17T09:02:21Z</time>
      </trkpt>
      <trkpt lat="46.57797" lon="5.86476">
        <ele>951.8425293</ele>
        <time>2011-08-17T09:02:28Z</time>
      </trkpt>
      <trkpt lat="46.57797" lon="5.86474">
        <ele>952.322998</ele>
        <time>2011-08-17T09:02:29Z</time>
      </trkpt>
      <trkpt lat="46.57798" lon="5.86466">
        <ele>953.7651367</ele>
        <time>2011-08-17T09:02:34Z</time>
      </trkpt>
      <trkpt lat="46.57798" lon="5.86464">
        <ele>952.8037109</ele>
        <time>2011-08-17T09:02:36Z</time>
      </trkpt>
      <trkpt lat="46.57798" lon="5.86457">
        <ele>954.2458496</ele>
        <time>2011-08-17T09:02:40Z</time>
      </trkpt>
      <trkpt lat="46.57798" lon="5.86455">
        <ele>954.2458496</ele>
        <time>2011-08-17T09:02:42Z</time>
      </trkpt>
      <trkpt lat="46.57801" lon="5.86447">
        <ele>958.0913086</ele>
        <time>2011-08-17T09:02:47Z</time>
      </trkpt>
      <trkpt lat="46.57801" lon="5.86444">
        <ele>957.1298828</ele>
        <time>2011-08-17T09:02:48Z</time>
      </trkpt>
      <trkpt lat="46.57803" lon="5.86433">
        <ele>957.1298828</ele>
        <time>2011-08-17T09:02:52Z</time>
      </trkpt>
      <trkpt lat="46.57806" lon="5.86424">
        <ele>956.168457</ele>
        <time>2011-08-17T09:02:56Z</time>
      </trkpt>
      <trkpt lat="46.578" lon="5.8641">
        <ele>957.1298828</ele>
        <time>2011-08-17T09:03:03Z</time>
      </trkpt>
      <trkpt lat="46.57795" lon="5.8641">
        <ele>958.0913086</ele>
        <time>2011-08-17T09:03:08Z</time>
      </trkpt>
      <trkpt lat="46.57792" lon="5.86412">
        <ele>960.9750977</ele>
        <time>2011-08-17T09:03:11Z</time>
      </trkpt>
      <trkpt lat="46.57788" lon="5.86414">
        <ele>963.378418</ele>
        <time>2011-08-17T09:03:16Z</time>
      </trkpt>
      <trkpt lat="46.57785" lon="5.86412">
        <ele>964.8203125</ele>
        <time>2011-08-17T09:03:21Z</time>
      </trkpt>
      <trkpt lat="46.5778" lon="5.86413">
        <ele>966.7429199</ele>
        <time>2011-08-17T09:03:25Z</time>
      </trkpt>
      <trkpt lat="46.57768" lon="5.86408">
        <ele>966.262207</ele>
        <time>2011-08-17T09:03:32Z</time>
      </trkpt>
      <trkpt lat="46.57759" lon="5.86405">
        <ele>962.8977051</ele>
        <time>2011-08-17T09:03:36Z</time>
      </trkpt>
      <trkpt lat="46.57748" lon="5.86399">
        <ele>963.8588867</ele>
        <time>2011-08-17T09:03:43Z</time>
      </trkpt>
      <trkpt lat="46.57739" lon="5.86401">
        <ele>963.378418</ele>
        <time>2011-08-17T09:03:48Z</time>
      </trkpt>
      <trkpt lat="46.57729" lon="5.86404">
        <ele>959.0524902</ele>
        <time>2011-08-17T09:03:56Z</time>
      </trkpt>
      <trkpt lat="46.57721" lon="5.86405">
        <ele>956.168457</ele>
        <time>2011-08-17T09:04:01Z</time>
      </trkpt>
      <trkpt lat="46.57714" lon="5.86399">
        <ele>952.322998</ele>
        <time>2011-08-17T09:04:08Z</time>
      </trkpt>
      <trkpt lat="46.57713" lon="5.86397">
        <ele>952.8037109</ele>
        <time>2011-08-17T09:04:10Z</time>
      </trkpt>
      <trkpt lat="46.5771" lon="5.86395">
        <ele>960.9750977</ele>
        <time>2011-08-17T09:04:22Z</time>
      </trkpt>
      <trkpt lat="46.57711" lon="5.86395">
        <ele>962.8977051</ele>
        <time>2011-08-17T09:04:33Z</time>
      </trkpt>
      <trkpt lat="46.57711" lon="5.86396">
        <ele>963.378418</ele>
        <time>2011-08-17T09:04:34Z</time>
      </trkpt>
      <trkpt lat="46.57713" lon="5.86401">
        <ele>961.4558105</ele>
        <time>2011-08-17T09:04:37Z</time>
      </trkpt>
      <trkpt lat="46.57721" lon="5.86403">
        <ele>966.262207</ele>
        <time>2011-08-17T09:04:43Z</time>
      </trkpt>
      <trkpt lat="46.57722" lon="5.86402">
        <ele>966.7429199</ele>
        <time>2011-08-17T09:04:44Z</time>
      </trkpt>
      <trkpt lat="46.57726" lon="5.86398">
        <ele>968.6655273</ele>
        <time>2011-08-17T09:04:48Z</time>
      </trkpt>
      <trkpt lat="46.57731" lon="5.86392">
        <ele>972.5109863</ele>
        <time>2011-08-17T09:04:52Z</time>
      </trkpt>
      <trkpt lat="46.57742" lon="5.86386">
        <ele>977.7980957</ele>
        <time>2011-08-17T09:04:58Z</time>
      </trkpt>
      <trkpt lat="46.57753" lon="5.86393">
        <ele>980.6821289</ele>
        <time>2011-08-17T09:05:03Z</time>
      </trkpt>
      <trkpt lat="46.57763" lon="5.86403">
        <ele>982.1240234</ele>
        <time>2011-08-17T09:05:08Z</time>
      </trkpt>
      <trkpt lat="46.57768" lon="5.86402">
        <ele>985.0080566</ele>
        <time>2011-08-17T09:05:12Z</time>
      </trkpt>
      <trkpt lat="46.57776" lon="5.86403">
        <ele>985.9692383</ele>
        <time>2011-08-17T09:05:19Z</time>
      </trkpt>
      <trkpt lat="46.57778" lon="5.86403">
        <ele>985.0080566</ele>
        <time>2011-08-17T09:05:20Z</time>
      </trkpt>
      <trkpt lat="46.57792" lon="5.86399">
        <ele>976.3562012</ele>
        <time>2011-08-17T09:05:26Z</time>
      </trkpt>
      <trkpt lat="46.57794" lon="5.864">
        <ele>975.3947754</ele>
        <time>2011-08-17T09:05:27Z</time>
      </trkpt>
      <trkpt lat="46.57803" lon="5.86414">
        <ele>971.5493164</ele>
        <time>2011-08-17T09:05:32Z</time>
      </trkpt>
      <trkpt lat="46.57803" lon="5.86418">
        <ele>971.0688477</ele>
        <time>2011-08-17T09:05:33Z</time>
      </trkpt>
      <trkpt lat="46.57803" lon="5.86431">
        <ele>965.3010254</ele>
        <time>2011-08-17T09:05:37Z</time>
      </trkpt>
      <trkpt lat="46.57802" lon="5.86447">
        <ele>960.9750977</ele>
        <time>2011-08-17T09:05:42Z</time>
      </trkpt>
      <trkpt lat="46.578" lon="5.86462">
        <ele>957.6105957</ele>
        <time>2011-08-17T09:05:47Z</time>
      </trkpt>
      <trkpt lat="46.578" lon="5.86467">
        <ele>956.168457</ele>
        <time>2011-08-17T09:05:49Z</time>
      </trkpt>
      <trkpt lat="46.578" lon="5.86477">
        <ele>956.168457</ele>
        <time>2011-08-17T09:05:54Z</time>
      </trkpt>
      <trkpt lat="46.57801" lon="5.86486">
        <ele>951.8425293</ele>
        <time>2011-08-17T09:06:00Z</time>
      </trkpt>
      <trkpt lat="46.57803" lon="5.86492">
        <ele>949.439209</ele>
        <time>2011-08-17T09:06:04Z</time>
      </trkpt>
      <trkpt lat="46.57804" lon="5.86503">
        <ele>949.9199219</ele>
        <time>2011-08-17T09:06:11Z</time>
      </trkpt>
      <trkpt lat="46.57805" lon="5.86508">
        <ele>950.8811035</ele>
        <time>2011-08-17T09:06:13Z</time>
      </trkpt>
      <trkpt lat="46.57807" lon="5.86516">
        <ele>949.9199219</ele>
        <time>2011-08-17T09:06:18Z</time>
      </trkpt>
      <trkpt lat="46.57808" lon="5.86523">
        <ele>948.4777832</ele>
        <time>2011-08-17T09:06:22Z</time>
      </trkpt>
      <trkpt lat="46.5781" lon="5.86527">
        <ele>942.7102051</ele>
        <time>2011-08-17T09:06:25Z</time>
      </trkpt>
      <trkpt lat="46.57812" lon="5.86532">
        <ele>939.3452148</ele>
        <time>2011-08-17T09:06:28Z</time>
      </trkpt>
      <trkpt lat="46.57819" lon="5.86547">
        <ele>935.5</ele>
        <time>2011-08-17T09:06:36Z</time>
      </trkpt>
      <trkpt lat="46.57819" lon="5.86556">
        <ele>940.7873535</ele>
        <time>2011-08-17T09:06:39Z</time>
      </trkpt>
      <trkpt lat="46.57818" lon="5.86563">
        <ele>944.6325684</ele>
        <time>2011-08-17T09:06:47Z</time>
      </trkpt>
      <trkpt lat="46.5782" lon="5.86569">
        <ele>946.074707</ele>
        <time>2011-08-17T09:06:50Z</time>
      </trkpt>
      <trkpt lat="46.57823" lon="5.8657">
        <ele>946.5554199</ele>
        <time>2011-08-17T09:06:55Z</time>
      </trkpt>
      <trkpt lat="46.57832" lon="5.86565">
        <ele>946.074707</ele>
        <time>2011-08-17T09:07:00Z</time>
      </trkpt>
      <trkpt lat="46.5784" lon="5.86554">
        <ele>949.439209</ele>
        <time>2011-08-17T09:07:04Z</time>
      </trkpt>
      <trkpt lat="46.57851" lon="5.86541">
        <ele>953.7651367</ele>
        <time>2011-08-17T09:07:10Z</time>
      </trkpt>
      <trkpt lat="46.5786" lon="5.86538">
        <ele>956.168457</ele>
        <time>2011-08-17T09:07:15Z</time>
      </trkpt>
      <trkpt lat="46.57863" lon="5.86535">
        <ele>957.6105957</ele>
        <time>2011-08-17T09:07:17Z</time>
      </trkpt>
      <trkpt lat="46.5787" lon="5.86532">
        <ele>957.6105957</ele>
        <time>2011-08-17T09:07:22Z</time>
      </trkpt>
      <trkpt lat="46.57878" lon="5.86523">
        <ele>954.2458496</ele>
        <time>2011-08-17T09:07:26Z</time>
      </trkpt>
      <trkpt lat="46.57896" lon="5.86517">
        <ele>951.8425293</ele>
        <time>2011-08-17T09:07:32Z</time>
      </trkpt>
      <trkpt lat="46.5791" lon="5.86521">
        <ele>952.8037109</ele>
        <time>2011-08-17T09:07:37Z</time>
      </trkpt>
      <trkpt lat="46.57921" lon="5.86533">
        <ele>952.322998</ele>
        <time>2011-08-17T09:07:42Z</time>
      </trkpt>
      <trkpt lat="46.57924" lon="5.86537">
        <ele>951.3618164</ele>
        <time>2011-08-17T09:07:44Z</time>
      </trkpt>
      <trkpt lat="46.57939" lon="5.86546">
        <ele>946.5554199</ele>
        <time>2011-08-17T09:07:49Z</time>
      </trkpt>
      <trkpt lat="46.57948" lon="5.86561">
        <ele>941.7487793</ele>
        <time>2011-08-17T09:07:55Z</time>
      </trkpt>
      <trkpt lat="46.57957" lon="5.86573">
        <ele>934.5388184</ele>
        <time>2011-08-17T09:08:01Z</time>
      </trkpt>
      <trkpt lat="46.57958" lon="5.86575">
        <ele>934.5388184</ele>
        <time>2011-08-17T09:08:02Z</time>
      </trkpt>
      <trkpt lat="46.57965" lon="5.86585">
        <ele>934.5388184</ele>
        <time>2011-08-17T09:08:07Z</time>
      </trkpt>
      <trkpt lat="46.57966" lon="5.86586">
        <ele>935.0195313</ele>
        <time>2011-08-17T09:08:08Z</time>
      </trkpt>
      <trkpt lat="46.57973" lon="5.86585">
        <ele>946.074707</ele>
        <time>2011-08-17T09:08:14Z</time>
      </trkpt>
      <trkpt lat="46.57979" lon="5.86582">
        <ele>951.8425293</ele>
        <time>2011-08-17T09:08:18Z</time>
      </trkpt>
      <trkpt lat="46.57988" lon="5.8658">
        <ele>959.0524902</ele>
        <time>2011-08-17T09:08:23Z</time>
      </trkpt>
      <trkpt lat="46.57997" lon="5.86581">
        <ele>962.8977051</ele>
        <time>2011-08-17T09:08:27Z</time>
      </trkpt>
      <trkpt lat="46.58005" lon="5.86581">
        <ele>965.3010254</ele>
        <time>2011-08-17T09:08:31Z</time>
      </trkpt>
      <trkpt lat="46.58014" lon="5.8658">
        <ele>968.1848145</ele>
        <time>2011-08-17T09:08:36Z</time>
      </trkpt>
      <trkpt lat="46.58021" lon="5.86583">
        <ele>967.2236328</ele>
        <time>2011-08-17T09:08:40Z</time>
      </trkpt>
      <trkpt lat="46.58031" lon="5.86591">
        <ele>965.3010254</ele>
        <time>2011-08-17T09:08:46Z</time>
      </trkpt>
      <trkpt lat="46.58037" lon="5.86595">
        <ele>962.8977051</ele>
        <time>2011-08-17T09:08:50Z</time>
      </trkpt>
      <trkpt lat="46.58047" lon="5.866">
        <ele>962.4169922</ele>
        <time>2011-08-17T09:08:55Z</time>
      </trkpt>
      <trkpt lat="46.58053" lon="5.86604">
        <ele>960.9750977</ele>
        <time>2011-08-17T09:08:59Z</time>
      </trkpt>
      <trkpt lat="46.58063" lon="5.86608">
        <ele>959.0524902</ele>
        <time>2011-08-17T09:09:05Z</time>
      </trkpt>
      <trkpt lat="46.58071" lon="5.86612">
        <ele>959.0524902</ele>
        <time>2011-08-17T09:09:09Z</time>
      </trkpt>
      <trkpt lat="46.58084" lon="5.86611">
        <ele>961.4558105</ele>
        <time>2011-08-17T09:09:15Z</time>
      </trkpt>
      <trkpt lat="46.5809" lon="5.86611">
        <ele>964.8203125</ele>
        <time>2011-08-17T09:09:18Z</time>
      </trkpt>
      <trkpt lat="46.581" lon="5.86615">
        <ele>966.7429199</ele>
        <time>2011-08-17T09:09:22Z</time>
      </trkpt>
      <trkpt lat="46.58113" lon="5.86613">
        <ele>972.0302734</ele>
        <time>2011-08-17T09:09:28Z</time>
      </trkpt>
      <trkpt lat="46.58125" lon="5.86612">
        <ele>975.3947754</ele>
        <time>2011-08-17T09:09:33Z</time>
      </trkpt>
      <trkpt lat="46.58133" lon="5.86609">
        <ele>976.3562012</ele>
        <time>2011-08-17T09:09:37Z</time>
      </trkpt>
      <trkpt lat="46.58145" lon="5.86616">
        <ele>977.317627</ele>
        <time>2011-08-17T09:09:42Z</time>
      </trkpt>
      <trkpt lat="46.58154" lon="5.86616">
        <ele>978.2788086</ele>
        <time>2011-08-17T09:09:46Z</time>
      </trkpt>
      <trkpt lat="46.58165" lon="5.86618">
        <ele>976.8369141</ele>
        <time>2011-08-17T09:09:51Z</time>
      </trkpt>
      <trkpt lat="46.58168" lon="5.86619">
        <ele>975.8754883</ele>
        <time>2011-08-17T09:09:52Z</time>
      </trkpt>
      <trkpt lat="46.58181" lon="5.86623">
        <ele>972.5109863</ele>
        <time>2011-08-17T09:09:58Z</time>
      </trkpt>
      <trkpt lat="46.58186" lon="5.86626">
        <ele>971.0688477</ele>
        <time>2011-08-17T09:10:00Z</time>
      </trkpt>
      <trkpt lat="46.58197" lon="5.86631">
        <ele>968.6655273</ele>
        <time>2011-08-17T09:10:05Z</time>
      </trkpt>
      <trkpt lat="46.58202" lon="5.86634">
        <ele>967.7041016</ele>
        <time>2011-08-17T09:10:07Z</time>
      </trkpt>
      <trkpt lat="46.58212" lon="5.86636">
        <ele>968.6655273</ele>
        <time>2011-08-17T09:10:12Z</time>
      </trkpt>
      <trkpt lat="46.58222" lon="5.86641">
        <ele>965.3010254</ele>
        <time>2011-08-17T09:10:17Z</time>
      </trkpt>
      <trkpt lat="46.58231" lon="5.86646">
        <ele>963.8588867</ele>
        <time>2011-08-17T09:10:23Z</time>
      </trkpt>
      <trkpt lat="46.58233" lon="5.86645">
        <ele>961.4558105</ele>
        <time>2011-08-17T09:10:31Z</time>
      </trkpt>
      <trkpt lat="46.58236" lon="5.8664">
        <ele>956.6491699</ele>
        <time>2011-08-17T09:10:37Z</time>
      </trkpt>
      <trkpt lat="46.58236" lon="5.86637">
        <ele>955.2070313</ele>
        <time>2011-08-17T09:10:41Z</time>
      </trkpt>
      <trkpt lat="46.58236" lon="5.86639">
        <ele>953.2844238</ele>
        <time>2011-08-17T09:10:53Z</time>
      </trkpt>
      <trkpt lat="46.58236" lon="5.86641">
        <ele>949.439209</ele>
        <time>2011-08-17T09:11:11Z</time>
      </trkpt>
      <trkpt lat="46.58236" lon="5.86647">
        <ele>948.4777832</ele>
        <time>2011-08-17T09:11:16Z</time>
      </trkpt>
      <trkpt lat="46.58235" lon="5.86659">
        <ele>949.9199219</ele>
        <time>2011-08-17T09:11:22Z</time>
      </trkpt>
      <trkpt lat="46.58238" lon="5.86669">
        <ele>948.9584961</ele>
        <time>2011-08-17T09:11:26Z</time>
      </trkpt>
      <trkpt lat="46.58241" lon="5.86682">
        <ele>949.439209</ele>
        <time>2011-08-17T09:11:30Z</time>
      </trkpt>
      <trkpt lat="46.58243" lon="5.86704">
        <ele>949.9199219</ele>
        <time>2011-08-17T09:11:37Z</time>
      </trkpt>
      <trkpt lat="46.58243" lon="5.86727">
        <ele>949.9199219</ele>
        <time>2011-08-17T09:11:43Z</time>
      </trkpt>
      <trkpt lat="46.58239" lon="5.86741">
        <ele>949.9199219</ele>
        <time>2011-08-17T09:11:47Z</time>
      </trkpt>
      <trkpt lat="46.58233" lon="5.86764">
        <ele>950.8811035</ele>
        <time>2011-08-17T09:11:53Z</time>
      </trkpt>
      <trkpt lat="46.58233" lon="5.86778">
        <ele>952.322998</ele>
        <time>2011-08-17T09:11:57Z</time>
      </trkpt>
      <trkpt lat="46.58239" lon="5.86786">
        <ele>949.439209</ele>
        <time>2011-08-17T09:12:02Z</time>
      </trkpt>
      <trkpt lat="46.58244" lon="5.86782">
        <ele>949.439209</ele>
        <time>2011-08-17T09:12:05Z</time>
      </trkpt>
      <trkpt lat="46.58254" lon="5.86766">
        <ele>946.074707</ele>
        <time>2011-08-17T09:12:11Z</time>
      </trkpt>
      <trkpt lat="46.58267" lon="5.86752">
        <ele>943.1906738</ele>
        <time>2011-08-17T09:12:16Z</time>
      </trkpt>
      <trkpt lat="46.58268" lon="5.86751">
        <ele>942.2294922</ele>
        <time>2011-08-17T09:12:17Z</time>
      </trkpt>
      <trkpt lat="46.58281" lon="5.86752">
        <ele>935.9807129</ele>
        <time>2011-08-17T09:12:23Z</time>
      </trkpt>
      <trkpt lat="46.58292" lon="5.86766">
        <ele>930.2128906</ele>
        <time>2011-08-17T09:12:28Z</time>
      </trkpt>
      <trkpt lat="46.58294" lon="5.8678">
        <ele>927.8095703</ele>
        <time>2011-08-17T09:12:32Z</time>
      </trkpt>
      <trkpt lat="46.58289" lon="5.86797">
        <ele>926.3676758</ele>
        <time>2011-08-17T09:12:37Z</time>
      </trkpt>
      <trkpt lat="46.58292" lon="5.86806">
        <ele>925.40625</ele>
        <time>2011-08-17T09:12:41Z</time>
      </trkpt>
      <trkpt lat="46.58295" lon="5.86811">
        <ele>923.9641113</ele>
        <time>2011-08-17T09:12:45Z</time>
      </trkpt>
      <trkpt lat="46.58298" lon="5.86817">
        <ele>923.9641113</ele>
        <time>2011-08-17T09:12:48Z</time>
      </trkpt>
      <trkpt lat="46.58299" lon="5.86831">
        <ele>923.9641113</ele>
        <time>2011-08-17T09:12:55Z</time>
      </trkpt>
      <trkpt lat="46.58302" lon="5.86837">
        <ele>923.9641113</ele>
        <time>2011-08-17T09:12:59Z</time>
      </trkpt>
      <trkpt lat="46.58305" lon="5.86842">
        <ele>926.3676758</ele>
        <time>2011-08-17T09:13:06Z</time>
      </trkpt>
      <trkpt lat="46.58304" lon="5.86841">
        <ele>926.8483887</ele>
        <time>2011-08-17T09:13:31Z</time>
      </trkpt>
      <trkpt lat="46.58306" lon="5.86842">
        <ele>930.6936035</ele>
        <time>2011-08-17T09:13:44Z</time>
      </trkpt>
      <trkpt lat="46.5831" lon="5.86841">
        <ele>935.9807129</ele>
        <time>2011-08-17T09:14:02Z</time>
      </trkpt>
      <trkpt lat="46.58307" lon="5.86844">
        <ele>932.6162109</ele>
        <time>2011-08-17T09:14:27Z</time>
      </trkpt>
      <trkpt lat="46.58301" lon="5.86843">
        <ele>928.7709961</ele>
        <time>2011-08-17T09:14:41Z</time>
      </trkpt>
      <trkpt lat="46.58297" lon="5.86833">
        <ele>927.8095703</ele>
        <time>2011-08-17T09:14:45Z</time>
      </trkpt>
      <trkpt lat="46.58287" lon="5.8682">
        <ele>926.3676758</ele>
        <time>2011-08-17T09:14:51Z</time>
      </trkpt>
      <trkpt lat="46.58278" lon="5.86831">
        <ele>932.135498</ele>
        <time>2011-08-17T09:14:57Z</time>
      </trkpt>
      <trkpt lat="46.58272" lon="5.86843">
        <ele>936.4614258</ele>
        <time>2011-08-17T09:15:00Z</time>
      </trkpt>
      <trkpt lat="46.58262" lon="5.8686">
        <ele>935.0195313</ele>
        <time>2011-08-17T09:15:06Z</time>
      </trkpt>
      <trkpt lat="46.58254" lon="5.86875">
        <ele>935.0195313</ele>
        <time>2011-08-17T09:15:11Z</time>
      </trkpt>
      <trkpt lat="46.58245" lon="5.86889">
        <ele>933.5773926</ele>
        <time>2011-08-17T09:15:16Z</time>
      </trkpt>
      <trkpt lat="46.58232" lon="5.86911">
        <ele>932.135498</ele>
        <time>2011-08-17T09:15:23Z</time>
      </trkpt>
      <trkpt lat="46.58225" lon="5.86926">
        <ele>932.6162109</ele>
        <time>2011-08-17T09:15:28Z</time>
      </trkpt>
      <trkpt lat="46.58216" lon="5.86945">
        <ele>933.5773926</ele>
        <time>2011-08-17T09:15:33Z</time>
      </trkpt>
      <trkpt lat="46.58207" lon="5.86967">
        <ele>935.5</ele>
        <time>2011-08-17T09:15:38Z</time>
      </trkpt>
      <trkpt lat="46.58204" lon="5.8697">
        <ele>935.0195313</ele>
        <time>2011-08-17T09:15:39Z</time>
      </trkpt>
      <trkpt lat="46.58185" lon="5.8699">
        <ele>936.4614258</ele>
        <time>2011-08-17T09:15:45Z</time>
      </trkpt>
      <trkpt lat="46.5818" lon="5.86996">
        <ele>935.9807129</ele>
        <time>2011-08-17T09:15:47Z</time>
      </trkpt>
      <trkpt lat="46.58174" lon="5.87024">
        <ele>942.7102051</ele>
        <time>2011-08-17T09:15:54Z</time>
      </trkpt>
      <trkpt lat="46.58177" lon="5.87033">
        <ele>940.3068848</ele>
        <time>2011-08-17T09:15:58Z</time>
      </trkpt>
      <trkpt lat="46.58177" lon="5.87046">
        <ele>935.0195313</ele>
        <time>2011-08-17T09:16:02Z</time>
      </trkpt>
      <trkpt lat="46.58167" lon="5.8706">
        <ele>931.1743164</ele>
        <time>2011-08-17T09:16:07Z</time>
      </trkpt>
      <trkpt lat="46.58156" lon="5.87058">
        <ele>923.9641113</ele>
        <time>2011-08-17T09:16:11Z</time>
      </trkpt>
      <trkpt lat="46.58141" lon="5.87046">
        <ele>916.7543945</ele>
        <time>2011-08-17T09:16:17Z</time>
      </trkpt>
      <trkpt lat="46.58137" lon="5.8704">
        <ele>912.9091797</ele>
        <time>2011-08-17T09:16:19Z</time>
      </trkpt>
      <trkpt lat="46.58123" lon="5.87033">
        <ele>911.947998</ele>
        <time>2011-08-17T09:16:25Z</time>
      </trkpt>
      <trkpt lat="46.58109" lon="5.87039">
        <ele>915.3125</ele>
        <time>2011-08-17T09:16:30Z</time>
      </trkpt>
      <trkpt lat="46.58101" lon="5.87054">
        <ele>921.0803223</ele>
        <time>2011-08-17T09:16:34Z</time>
      </trkpt>
      <trkpt lat="46.58094" lon="5.87073">
        <ele>923.4836426</ele>
        <time>2011-08-17T09:16:39Z</time>
      </trkpt>
      <trkpt lat="46.58086" lon="5.8709">
        <ele>927.8095703</ele>
        <time>2011-08-17T09:16:43Z</time>
      </trkpt>
      <trkpt lat="46.58076" lon="5.87105">
        <ele>927.8095703</ele>
        <time>2011-08-17T09:16:48Z</time>
      </trkpt>
      <trkpt lat="46.58067" lon="5.87108">
        <ele>923.0029297</ele>
        <time>2011-08-17T09:16:52Z</time>
      </trkpt>
      <trkpt lat="46.58047" lon="5.87103">
        <ele>913.3898926</ele>
        <time>2011-08-17T09:16:59Z</time>
      </trkpt>
      <trkpt lat="46.58035" lon="5.871">
        <ele>910.5058594</ele>
        <time>2011-08-17T09:17:04Z</time>
      </trkpt>
      <trkpt lat="46.5803" lon="5.871">
        <ele>910.9865723</ele>
        <time>2011-08-17T09:17:06Z</time>
      </trkpt>
      <trkpt lat="46.5802" lon="5.87112">
        <ele>915.3125</ele>
        <time>2011-08-17T09:17:11Z</time>
      </trkpt>
      <trkpt lat="46.58014" lon="5.87133">
        <ele>921.560791</ele>
        <time>2011-08-17T09:17:16Z</time>
      </trkpt>
      <trkpt lat="46.58012" lon="5.87149">
        <ele>929.7321777</ele>
        <time>2011-08-17T09:17:19Z</time>
      </trkpt>
      <trkpt lat="46.58001" lon="5.87165">
        <ele>934.0581055</ele>
        <time>2011-08-17T09:17:25Z</time>
      </trkpt>
      <trkpt lat="46.58" lon="5.87165">
        <ele>932.6162109</ele>
        <time>2011-08-17T09:17:26Z</time>
      </trkpt>
      <trkpt lat="46.57992" lon="5.87171">
        <ele>922.5222168</ele>
        <time>2011-08-17T09:17:32Z</time>
      </trkpt>
      <trkpt lat="46.5799" lon="5.87173">
        <ele>920.5996094</ele>
        <time>2011-08-17T09:17:33Z</time>
      </trkpt>
      <trkpt lat="46.57987" lon="5.87181">
        <ele>916.2736816</ele>
        <time>2011-08-17T09:17:36Z</time>
      </trkpt>
      <trkpt lat="46.57987" lon="5.87195">
        <ele>905.2185059</ele>
        <time>2011-08-17T09:17:41Z</time>
      </trkpt>
      <trkpt lat="46.57996" lon="5.87204">
        <ele>897.5280762</ele>
        <time>2011-08-17T09:17:46Z</time>
      </trkpt>
      <trkpt lat="46.58009" lon="5.87207">
        <ele>892.2409668</ele>
        <time>2011-08-17T09:17:51Z</time>
      </trkpt>
      <trkpt lat="46.58015" lon="5.87203">
        <ele>897.0473633</ele>
        <time>2011-08-17T09:17:55Z</time>
      </trkpt>
      <trkpt lat="46.58023" lon="5.87199">
        <ele>902.3344727</ele>
        <time>2011-08-17T09:17:59Z</time>
      </trkpt>
      <trkpt lat="46.58033" lon="5.87201">
        <ele>902.3344727</ele>
        <time>2011-08-17T09:18:04Z</time>
      </trkpt>
      <trkpt lat="46.58042" lon="5.87211">
        <ele>898.0087891</ele>
        <time>2011-08-17T09:18:08Z</time>
      </trkpt>
      <trkpt lat="46.58055" lon="5.8722">
        <ele>890.798584</ele>
        <time>2011-08-17T09:18:13Z</time>
      </trkpt>
      <trkpt lat="46.58063" lon="5.87224">
        <ele>886.4729004</ele>
        <time>2011-08-17T09:18:16Z</time>
      </trkpt>
      <trkpt lat="46.58075" lon="5.87234">
        <ele>882.1469727</ele>
        <time>2011-08-17T09:18:22Z</time>
      </trkpt>
      <trkpt lat="46.5809" lon="5.87241">
        <ele>875.4174805</ele>
        <time>2011-08-17T09:18:28Z</time>
      </trkpt>
      <trkpt lat="46.581" lon="5.87249">
        <ele>874.9370117</ele>
        <time>2011-08-17T09:18:33Z</time>
      </trkpt>
      <trkpt lat="46.58109" lon="5.87251">
        <ele>877.3405762</ele>
        <time>2011-08-17T09:18:37Z</time>
      </trkpt>
      <trkpt lat="46.58119" lon="5.87257">
        <ele>877.8210449</ele>
        <time>2011-08-17T09:18:41Z</time>
      </trkpt>
      <trkpt lat="46.58124" lon="5.87259">
        <ele>879.2629395</ele>
        <time>2011-08-17T09:18:43Z</time>
      </trkpt>
      <trkpt lat="46.58137" lon="5.87266">
        <ele>885.0310059</ele>
        <time>2011-08-17T09:18:49Z</time>
      </trkpt>
      <trkpt lat="46.58147" lon="5.87275">
        <ele>885.9921875</ele>
        <time>2011-08-17T09:18:53Z</time>
      </trkpt>
      <trkpt lat="46.5816" lon="5.87285">
        <ele>883.5888672</ele>
        <time>2011-08-17T09:18:58Z</time>
      </trkpt>
      <trkpt lat="46.58173" lon="5.87289">
        <ele>881.6662598</ele>
        <time>2011-08-17T09:19:03Z</time>
      </trkpt>
      <trkpt lat="46.58187" lon="5.8729">
        <ele>878.7824707</ele>
        <time>2011-08-17T09:19:08Z</time>
      </trkpt>
      <trkpt lat="46.58198" lon="5.87296">
        <ele>875.8981934</ele>
        <time>2011-08-17T09:19:13Z</time>
      </trkpt>
      <trkpt lat="46.58209" lon="5.87305">
        <ele>872.0529785</ele>
        <time>2011-08-17T09:19:18Z</time>
      </trkpt>
      <trkpt lat="46.58218" lon="5.87317">
        <ele>867.246582</ele>
        <time>2011-08-17T09:19:22Z</time>
      </trkpt>
      <trkpt lat="46.58226" lon="5.87329">
        <ele>862.4399414</ele>
        <time>2011-08-17T09:19:26Z</time>
      </trkpt>
      <trkpt lat="46.58236" lon="5.87346">
        <ele>858.1140137</ele>
        <time>2011-08-17T09:19:31Z</time>
      </trkpt>
      <trkpt lat="46.58239" lon="5.87351">
        <ele>856.671875</ele>
        <time>2011-08-17T09:19:33Z</time>
      </trkpt>
      <trkpt lat="46.58245" lon="5.87371">
        <ele>851.3847656</ele>
        <time>2011-08-17T09:19:39Z</time>
      </trkpt>
      <trkpt lat="46.58251" lon="5.8738">
        <ele>852.3459473</ele>
        <time>2011-08-17T09:19:42Z</time>
      </trkpt>
      <trkpt lat="46.58259" lon="5.87394">
        <ele>854.2687988</ele>
        <time>2011-08-17T09:19:47Z</time>
      </trkpt>
      <trkpt lat="46.58269" lon="5.87408">
        <ele>852.3459473</ele>
        <time>2011-08-17T09:19:52Z</time>
      </trkpt>
      <trkpt lat="46.58279" lon="5.87426">
        <ele>850.423584</ele>
        <time>2011-08-17T09:19:58Z</time>
      </trkpt>
      <trkpt lat="46.5829" lon="5.87442">
        <ele>847.5395508</ele>
        <time>2011-08-17T09:20:04Z</time>
      </trkpt>
      <trkpt lat="46.58298" lon="5.87454">
        <ele>845.6169434</ele>
        <time>2011-08-17T09:20:09Z</time>
      </trkpt>
      <trkpt lat="46.58301" lon="5.87464">
        <ele>844.6555176</ele>
        <time>2011-08-17T09:20:14Z</time>
      </trkpt>
      <trkpt lat="46.58302" lon="5.87469">
        <ele>842.7329102</ele>
        <time>2011-08-17T09:20:16Z</time>
      </trkpt>
      <trkpt lat="46.58309" lon="5.87481">
        <ele>842.2521973</ele>
        <time>2011-08-17T09:20:21Z</time>
      </trkpt>
      <trkpt lat="46.58318" lon="5.87494">
        <ele>839.848877</ele>
        <time>2011-08-17T09:20:26Z</time>
      </trkpt>
      <trkpt lat="46.58326" lon="5.87501">
        <ele>837.4455566</ele>
        <time>2011-08-17T09:20:30Z</time>
      </trkpt>
      <trkpt lat="46.58339" lon="5.87511">
        <ele>836.9648438</ele>
        <time>2011-08-17T09:20:35Z</time>
      </trkpt>
      <trkpt lat="46.58348" lon="5.87522">
        <ele>835.0424805</ele>
        <time>2011-08-17T09:20:39Z</time>
      </trkpt>
      <trkpt lat="46.58362" lon="5.87529">
        <ele>833.1196289</ele>
        <time>2011-08-17T09:20:44Z</time>
      </trkpt>
      <trkpt lat="46.58375" lon="5.87536">
        <ele>833.1196289</ele>
        <time>2011-08-17T09:20:49Z</time>
      </trkpt>
      <trkpt lat="46.58385" lon="5.87543">
        <ele>832.6391602</ele>
        <time>2011-08-17T09:20:53Z</time>
      </trkpt>
      <trkpt lat="46.58396" lon="5.87543">
        <ele>833.6003418</ele>
        <time>2011-08-17T09:20:57Z</time>
      </trkpt>
      <trkpt lat="46.58409" lon="5.87545">
        <ele>833.1196289</ele>
        <time>2011-08-17T09:21:02Z</time>
      </trkpt>
      <trkpt lat="46.58421" lon="5.87544">
        <ele>833.1196289</ele>
        <time>2011-08-17T09:21:07Z</time>
      </trkpt>
      <trkpt lat="46.58429" lon="5.87547">
        <ele>831.6777344</ele>
        <time>2011-08-17T09:21:11Z</time>
      </trkpt>
      <trkpt lat="46.58443" lon="5.8755">
        <ele>832.1584473</ele>
        <time>2011-08-17T09:21:16Z</time>
      </trkpt>
      <trkpt lat="46.58451" lon="5.87554">
        <ele>830.7165527</ele>
        <time>2011-08-17T09:21:19Z</time>
      </trkpt>
      <trkpt lat="46.58462" lon="5.87558">
        <ele>830.7165527</ele>
        <time>2011-08-17T09:21:23Z</time>
      </trkpt>
      <trkpt lat="46.58469" lon="5.87562">
        <ele>830.2358398</ele>
        <time>2011-08-17T09:21:26Z</time>
      </trkpt>
      <trkpt lat="46.58482" lon="5.87563">
        <ele>828.3132324</ele>
        <time>2011-08-17T09:21:31Z</time>
      </trkpt>
      <trkpt lat="46.58495" lon="5.87567">
        <ele>827.3518066</ele>
        <time>2011-08-17T09:21:36Z</time>
      </trkpt>
      <trkpt lat="46.58508" lon="5.87572">
        <ele>830.7165527</ele>
        <time>2011-08-17T09:21:41Z</time>
      </trkpt>
      <trkpt lat="46.58521" lon="5.87574">
        <ele>830.7165527</ele>
        <time>2011-08-17T09:21:46Z</time>
      </trkpt>
      <trkpt lat="46.58533" lon="5.87573">
        <ele>831.1972656</ele>
        <time>2011-08-17T09:21:51Z</time>
      </trkpt>
      <trkpt lat="46.58544" lon="5.87577">
        <ele>831.6777344</ele>
        <time>2011-08-17T09:21:55Z</time>
      </trkpt>
      <trkpt lat="46.5855" lon="5.87578">
        <ele>831.1972656</ele>
        <time>2011-08-17T09:21:57Z</time>
      </trkpt>
      <trkpt lat="46.58562" lon="5.87576">
        <ele>829.755127</ele>
        <time>2011-08-17T09:22:02Z</time>
      </trkpt>
      <trkpt lat="46.58568" lon="5.87574">
        <ele>828.3132324</ele>
        <time>2011-08-17T09:22:05Z</time>
      </trkpt>
      <trkpt lat="46.58582" lon="5.87569">
        <ele>826.3903809</ele>
        <time>2011-08-17T09:22:10Z</time>
      </trkpt>
      <trkpt lat="46.58594" lon="5.8756">
        <ele>825.909668</ele>
        <time>2011-08-17T09:22:15Z</time>
      </trkpt>
      <trkpt lat="46.58608" lon="5.87561">
        <ele>823.5065918</ele>
        <time>2011-08-17T09:22:21Z</time>
      </trkpt>
      <trkpt lat="46.58615" lon="5.87563">
        <ele>821.1032715</ele>
        <time>2011-08-17T09:22:24Z</time>
      </trkpt>
      <trkpt lat="46.58629" lon="5.87571">
        <ele>818.2192383</ele>
        <time>2011-08-17T09:22:29Z</time>
      </trkpt>
      <trkpt lat="46.58641" lon="5.8758">
        <ele>815.8161621</ele>
        <time>2011-08-17T09:22:34Z</time>
      </trkpt>
      <trkpt lat="46.58652" lon="5.87588">
        <ele>815.8161621</ele>
        <time>2011-08-17T09:22:39Z</time>
      </trkpt>
      <trkpt lat="46.58662" lon="5.87596">
        <ele>815.3354492</ele>
        <time>2011-08-17T09:22:43Z</time>
      </trkpt>
      <trkpt lat="46.58676" lon="5.87602">
        <ele>814.8547363</ele>
        <time>2011-08-17T09:22:49Z</time>
      </trkpt>
      <trkpt lat="46.58687" lon="5.87607">
        <ele>817.2580566</ele>
        <time>2011-08-17T09:22:54Z</time>
      </trkpt>
      <trkpt lat="46.58696" lon="5.87613">
        <ele>819.661377</ele>
        <time>2011-08-17T09:22:58Z</time>
      </trkpt>
      <trkpt lat="46.58707" lon="5.87615">
        <ele>823.5065918</ele>
        <time>2011-08-17T09:23:02Z</time>
      </trkpt>
      <trkpt lat="46.58709" lon="5.87616">
        <ele>824.4677734</ele>
        <time>2011-08-17T09:23:03Z</time>
      </trkpt>
      <trkpt lat="46.58722" lon="5.87616">
        <ele>826.8710938</ele>
        <time>2011-08-17T09:23:09Z</time>
      </trkpt>
      <trkpt lat="46.58738" lon="5.87615">
        <ele>831.1972656</ele>
        <time>2011-08-17T09:23:15Z</time>
      </trkpt>
      <trkpt lat="46.58749" lon="5.87618">
        <ele>832.1584473</ele>
        <time>2011-08-17T09:23:19Z</time>
      </trkpt>
      <trkpt lat="46.58756" lon="5.87619">
        <ele>831.1972656</ele>
        <time>2011-08-17T09:23:22Z</time>
      </trkpt>
      <trkpt lat="46.58768" lon="5.87627">
        <ele>827.8322754</ele>
        <time>2011-08-17T09:23:28Z</time>
      </trkpt>
      <trkpt lat="46.58779" lon="5.87631">
        <ele>825.909668</ele>
        <time>2011-08-17T09:23:32Z</time>
      </trkpt>
      <trkpt lat="46.58788" lon="5.87633">
        <ele>823.9870605</ele>
        <time>2011-08-17T09:23:36Z</time>
      </trkpt>
      <trkpt lat="46.58802" lon="5.87633">
        <ele>822.0644531</ele>
        <time>2011-08-17T09:23:42Z</time>
      </trkpt>
      <trkpt lat="46.58815" lon="5.87632">
        <ele>820.6225586</ele>
        <time>2011-08-17T09:23:47Z</time>
      </trkpt>
      <trkpt lat="46.58828" lon="5.87635">
        <ele>817.7385254</ele>
        <time>2011-08-17T09:23:52Z</time>
      </trkpt>
      <trkpt lat="46.5883" lon="5.87634">
        <ele>817.7385254</ele>
        <time>2011-08-17T09:23:53Z</time>
      </trkpt>
      <trkpt lat="46.58844" lon="5.87636">
        <ele>817.2580566</ele>
        <time>2011-08-17T09:23:58Z</time>
      </trkpt>
      <trkpt lat="46.58854" lon="5.87633">
        <ele>816.2966309</ele>
        <time>2011-08-17T09:24:03Z</time>
      </trkpt>
      <trkpt lat="46.58864" lon="5.87627">
        <ele>816.2966309</ele>
        <time>2011-08-17T09:24:07Z</time>
      </trkpt>
      <trkpt lat="46.58877" lon="5.87623">
        <ele>812.9321289</ele>
        <time>2011-08-17T09:24:12Z</time>
      </trkpt>
      <trkpt lat="46.58889" lon="5.87615">
        <ele>811.4899902</ele>
        <time>2011-08-17T09:24:17Z</time>
      </trkpt>
      <trkpt lat="46.58901" lon="5.87608">
        <ele>811.4899902</ele>
        <time>2011-08-17T09:24:22Z</time>
      </trkpt>
      <trkpt lat="46.58915" lon="5.87604">
        <ele>809.5673828</ele>
        <time>2011-08-17T09:24:27Z</time>
      </trkpt>
      <trkpt lat="46.58926" lon="5.87607">
        <ele>806.6833496</ele>
        <time>2011-08-17T09:24:31Z</time>
      </trkpt>
      <trkpt lat="46.58936" lon="5.8761">
        <ele>806.2026367</ele>
        <time>2011-08-17T09:24:35Z</time>
      </trkpt>
      <trkpt lat="46.58948" lon="5.87611">
        <ele>807.1640625</ele>
        <time>2011-08-17T09:24:40Z</time>
      </trkpt>
      <trkpt lat="46.58962" lon="5.87611">
        <ele>809.5673828</ele>
        <time>2011-08-17T09:24:46Z</time>
      </trkpt>
      <trkpt lat="46.58966" lon="5.87611">
        <ele>810.5285645</ele>
        <time>2011-08-17T09:24:48Z</time>
      </trkpt>
      <trkpt lat="46.58977" lon="5.87614">
        <ele>811.0092773</ele>
        <time>2011-08-17T09:24:53Z</time>
      </trkpt>
      <trkpt lat="46.5899" lon="5.87615">
        <ele>815.3354492</ele>
        <time>2011-08-17T09:24:58Z</time>
      </trkpt>
      <trkpt lat="46.58997" lon="5.87621">
        <ele>814.8547363</ele>
        <time>2011-08-17T09:25:02Z</time>
      </trkpt>
      <trkpt lat="46.5901" lon="5.8763">
        <ele>811.4899902</ele>
        <time>2011-08-17T09:25:07Z</time>
      </trkpt>
      <trkpt lat="46.59022" lon="5.87637">
        <ele>812.9321289</ele>
        <time>2011-08-17T09:25:12Z</time>
      </trkpt>
      <trkpt lat="46.59032" lon="5.87646">
        <ele>813.4128418</ele>
        <time>2011-08-17T09:25:16Z</time>
      </trkpt>
      <trkpt lat="46.59041" lon="5.8765">
        <ele>814.8547363</ele>
        <time>2011-08-17T09:25:20Z</time>
      </trkpt>
      <trkpt lat="46.59043" lon="5.87651">
        <ele>814.8547363</ele>
        <time>2011-08-17T09:25:21Z</time>
      </trkpt>
      <trkpt lat="46.59052" lon="5.87655">
        <ele>815.8161621</ele>
        <time>2011-08-17T09:25:25Z</time>
      </trkpt>
      <trkpt lat="46.59064" lon="5.87658">
        <ele>821.5837402</ele>
        <time>2011-08-17T09:25:31Z</time>
      </trkpt>
      <trkpt lat="46.59071" lon="5.87664">
        <ele>823.5065918</ele>
        <time>2011-08-17T09:25:35Z</time>
      </trkpt>
      <trkpt lat="46.59079" lon="5.87671">
        <ele>822.545166</ele>
        <time>2011-08-17T09:25:40Z</time>
      </trkpt>
      <trkpt lat="46.59095" lon="5.8768">
        <ele>820.6225586</ele>
        <time>2011-08-17T09:25:46Z</time>
      </trkpt>
      <trkpt lat="46.59097" lon="5.8768">
        <ele>821.1032715</ele>
        <time>2011-08-17T09:25:47Z</time>
      </trkpt>
      <trkpt lat="46.59111" lon="5.87666">
        <ele>825.909668</ele>
        <time>2011-08-17T09:25:53Z</time>
      </trkpt>
      <trkpt lat="46.59116" lon="5.87662">
        <ele>825.4289551</ele>
        <time>2011-08-17T09:25:55Z</time>
      </trkpt>
      <trkpt lat="46.59128" lon="5.87647">
        <ele>825.4289551</ele>
        <time>2011-08-17T09:26:01Z</time>
      </trkpt>
      <trkpt lat="46.59136" lon="5.87638">
        <ele>823.5065918</ele>
        <time>2011-08-17T09:26:06Z</time>
      </trkpt>
      <trkpt lat="46.5914" lon="5.87632">
        <ele>823.0258789</ele>
        <time>2011-08-17T09:26:08Z</time>
      </trkpt>
      <trkpt lat="46.59146" lon="5.87615">
        <ele>824.4677734</ele>
        <time>2011-08-17T09:26:13Z</time>
      </trkpt>
      <trkpt lat="46.59152" lon="5.87603">
        <ele>823.0258789</ele>
        <time>2011-08-17T09:26:17Z</time>
      </trkpt>
      <trkpt lat="46.59153" lon="5.87601">
        <ele>822.0644531</ele>
        <time>2011-08-17T09:26:18Z</time>
      </trkpt>
      <trkpt lat="46.59162" lon="5.87588">
        <ele>818.2192383</ele>
        <time>2011-08-17T09:26:24Z</time>
      </trkpt>
      <trkpt lat="46.59166" lon="5.87585">
        <ele>817.2580566</ele>
        <time>2011-08-17T09:26:27Z</time>
      </trkpt>
      <trkpt lat="46.59179" lon="5.87576">
        <ele>816.7773438</ele>
        <time>2011-08-17T09:26:32Z</time>
      </trkpt>
      <trkpt lat="46.59192" lon="5.87573">
        <ele>815.3354492</ele>
        <time>2011-08-17T09:26:37Z</time>
      </trkpt>
      <trkpt lat="46.59202" lon="5.87572">
        <ele>814.3740234</ele>
        <time>2011-08-17T09:26:41Z</time>
      </trkpt>
      <trkpt lat="46.59212" lon="5.87572">
        <ele>812.9321289</ele>
        <time>2011-08-17T09:26:45Z</time>
      </trkpt>
      <trkpt lat="46.59224" lon="5.8757">
        <ele>811.9707031</ele>
        <time>2011-08-17T09:26:50Z</time>
      </trkpt>
      <trkpt lat="46.59227" lon="5.8757">
        <ele>812.451416</ele>
        <time>2011-08-17T09:26:51Z</time>
      </trkpt>
      <trkpt lat="46.59237" lon="5.87562">
        <ele>812.451416</ele>
        <time>2011-08-17T09:26:57Z</time>
      </trkpt>
      <trkpt lat="46.59246" lon="5.8755">
        <ele>811.4899902</ele>
        <time>2011-08-17T09:27:02Z</time>
      </trkpt>
      <trkpt lat="46.59254" lon="5.87539">
        <ele>812.451416</ele>
        <time>2011-08-17T09:27:06Z</time>
      </trkpt>
      <trkpt lat="46.5926" lon="5.87533">
        <ele>812.451416</ele>
        <time>2011-08-17T09:27:09Z</time>
      </trkpt>
      <trkpt lat="46.59268" lon="5.87519">
        <ele>812.451416</ele>
        <time>2011-08-17T09:27:14Z</time>
      </trkpt>
      <trkpt lat="46.59277" lon="5.87509">
        <ele>812.451416</ele>
        <time>2011-08-17T09:27:18Z</time>
      </trkpt>
      <trkpt lat="46.59288" lon="5.87497">
        <ele>812.451416</ele>
        <time>2011-08-17T09:27:23Z</time>
      </trkpt>
      <trkpt lat="46.593" lon="5.87485">
        <ele>811.9707031</ele>
        <time>2011-08-17T09:27:28Z</time>
      </trkpt>
      <trkpt lat="46.59315" lon="5.87476">
        <ele>811.9707031</ele>
        <time>2011-08-17T09:27:34Z</time>
      </trkpt>
      <trkpt lat="46.59328" lon="5.87473">
        <ele>810.5285645</ele>
        <time>2011-08-17T09:27:39Z</time>
      </trkpt>
      <trkpt lat="46.59335" lon="5.87469">
        <ele>810.0478516</ele>
        <time>2011-08-17T09:27:42Z</time>
      </trkpt>
      <trkpt lat="46.59347" lon="5.87461">
        <ele>808.605957</ele>
        <time>2011-08-17T09:27:47Z</time>
      </trkpt>
      <trkpt lat="46.59359" lon="5.87455">
        <ele>807.6447754</ele>
        <time>2011-08-17T09:27:52Z</time>
      </trkpt>
      <trkpt lat="46.59372" lon="5.87447">
        <ele>806.6833496</ele>
        <time>2011-08-17T09:27:57Z</time>
      </trkpt>
      <trkpt lat="46.59381" lon="5.87441">
        <ele>807.6447754</ele>
        <time>2011-08-17T09:28:01Z</time>
      </trkpt>
      <trkpt lat="46.5939" lon="5.87436">
        <ele>806.6833496</ele>
        <time>2011-08-17T09:28:05Z</time>
      </trkpt>
      <trkpt lat="46.59401" lon="5.87426">
        <ele>807.6447754</ele>
        <time>2011-08-17T09:28:10Z</time>
      </trkpt>
      <trkpt lat="46.59412" lon="5.87419">
        <ele>806.2026367</ele>
        <time>2011-08-17T09:28:15Z</time>
      </trkpt>
      <trkpt lat="46.59418" lon="5.87414">
        <ele>805.722168</ele>
        <time>2011-08-17T09:28:18Z</time>
      </trkpt>
      <trkpt lat="46.59423" lon="5.87397">
        <ele>804.2802734</ele>
        <time>2011-08-17T09:28:24Z</time>
      </trkpt>
      <trkpt lat="46.59424" lon="5.87394">
        <ele>804.7607422</ele>
        <time>2011-08-17T09:28:25Z</time>
      </trkpt>
      <trkpt lat="46.59427" lon="5.87378">
        <ele>803.7995605</ele>
        <time>2011-08-17T09:28:30Z</time>
      </trkpt>
      <trkpt lat="46.59428" lon="5.87365">
        <ele>804.2802734</ele>
        <time>2011-08-17T09:28:34Z</time>
      </trkpt>
      <trkpt lat="46.59432" lon="5.87346">
        <ele>804.7607422</ele>
        <time>2011-08-17T09:28:40Z</time>
      </trkpt>
      <trkpt lat="46.59434" lon="5.87333">
        <ele>804.7607422</ele>
        <time>2011-08-17T09:28:44Z</time>
      </trkpt>
      <trkpt lat="46.59438" lon="5.87318">
        <ele>804.7607422</ele>
        <time>2011-08-17T09:28:49Z</time>
      </trkpt>
      <trkpt lat="46.59442" lon="5.87303">
        <ele>804.7607422</ele>
        <time>2011-08-17T09:28:54Z</time>
      </trkpt>
      <trkpt lat="46.5945" lon="5.87288">
        <ele>804.7607422</ele>
        <time>2011-08-17T09:28:59Z</time>
      </trkpt>
      <trkpt lat="46.59457" lon="5.87275">
        <ele>804.2802734</ele>
        <time>2011-08-17T09:29:04Z</time>
      </trkpt>
      <trkpt lat="46.59464" lon="5.8726">
        <ele>805.2414551</ele>
        <time>2011-08-17T09:29:09Z</time>
      </trkpt>
      <trkpt lat="46.59474" lon="5.87244">
        <ele>804.7607422</ele>
        <time>2011-08-17T09:29:15Z</time>
      </trkpt>
      <trkpt lat="46.59481" lon="5.87233">
        <ele>804.7607422</ele>
        <time>2011-08-17T09:29:19Z</time>
      </trkpt>
      <trkpt lat="46.5949" lon="5.8722">
        <ele>803.7995605</ele>
        <time>2011-08-17T09:29:24Z</time>
      </trkpt>
      <trkpt lat="46.59501" lon="5.87204">
        <ele>805.2414551</ele>
        <time>2011-08-17T09:29:30Z</time>
      </trkpt>
      <trkpt lat="46.59508" lon="5.87195">
        <ele>807.1640625</ele>
        <time>2011-08-17T09:29:34Z</time>
      </trkpt>
      <trkpt lat="46.59515" lon="5.87186">
        <ele>808.605957</ele>
        <time>2011-08-17T09:29:39Z</time>
      </trkpt>
      <trkpt lat="46.59525" lon="5.87179">
        <ele>809.0866699</ele>
        <time>2011-08-17T09:29:44Z</time>
      </trkpt>
      <trkpt lat="46.59537" lon="5.87175">
        <ele>809.5673828</ele>
        <time>2011-08-17T09:29:49Z</time>
      </trkpt>
      <trkpt lat="46.59546" lon="5.87171">
        <ele>810.0478516</ele>
        <time>2011-08-17T09:29:53Z</time>
      </trkpt>
      <trkpt lat="46.59553" lon="5.87168">
        <ele>810.0478516</ele>
        <time>2011-08-17T09:29:56Z</time>
      </trkpt>
      <trkpt lat="46.59566" lon="5.8716">
        <ele>810.0478516</ele>
        <time>2011-08-17T09:30:02Z</time>
      </trkpt>
      <trkpt lat="46.59572" lon="5.87154">
        <ele>813.4128418</ele>
        <time>2011-08-17T09:30:06Z</time>
      </trkpt>
      <trkpt lat="46.59578" lon="5.87148">
        <ele>814.8547363</ele>
        <time>2011-08-17T09:30:10Z</time>
      </trkpt>
      <trkpt lat="46.59588" lon="5.87137">
        <ele>814.3740234</ele>
        <time>2011-08-17T09:30:16Z</time>
      </trkpt>
      <trkpt lat="46.59595" lon="5.87128">
        <ele>813.4128418</ele>
        <time>2011-08-17T09:30:21Z</time>
      </trkpt>
      <trkpt lat="46.59607" lon="5.87119">
        <ele>813.4128418</ele>
        <time>2011-08-17T09:30:26Z</time>
      </trkpt>
      <trkpt lat="46.59615" lon="5.87114">
        <ele>813.4128418</ele>
        <time>2011-08-17T09:30:30Z</time>
      </trkpt>
      <trkpt lat="46.5963" lon="5.87111">
        <ele>814.3740234</ele>
        <time>2011-08-17T09:30:36Z</time>
      </trkpt>
      <trkpt lat="46.59637" lon="5.87109">
        <ele>814.3740234</ele>
        <time>2011-08-17T09:30:40Z</time>
      </trkpt>
      <trkpt lat="46.59647" lon="5.87109">
        <ele>814.3740234</ele>
        <time>2011-08-17T09:30:44Z</time>
      </trkpt>
      <trkpt lat="46.59662" lon="5.87112">
        <ele>814.8547363</ele>
        <time>2011-08-17T09:30:50Z</time>
      </trkpt>
      <trkpt lat="46.59672" lon="5.87112">
        <ele>814.8547363</ele>
        <time>2011-08-17T09:30:54Z</time>
      </trkpt>
      <trkpt lat="46.59683" lon="5.87113">
        <ele>813.8933105</ele>
        <time>2011-08-17T09:30:58Z</time>
      </trkpt>
      <trkpt lat="46.59696" lon="5.87121">
        <ele>812.451416</ele>
        <time>2011-08-17T09:31:03Z</time>
      </trkpt>
      <trkpt lat="46.59705" lon="5.87125">
        <ele>812.451416</ele>
        <time>2011-08-17T09:31:07Z</time>
      </trkpt>
      <trkpt lat="46.59712" lon="5.87131">
        <ele>812.451416</ele>
        <time>2011-08-17T09:31:11Z</time>
      </trkpt>
      <trkpt lat="46.59719" lon="5.87132">
        <ele>813.4128418</ele>
        <time>2011-08-17T09:31:14Z</time>
      </trkpt>
      <trkpt lat="46.59729" lon="5.87125">
        <ele>813.8933105</ele>
        <time>2011-08-17T09:31:19Z</time>
      </trkpt>
      <trkpt lat="46.59731" lon="5.87123">
        <ele>813.8933105</ele>
        <time>2011-08-17T09:31:20Z</time>
      </trkpt>
      <trkpt lat="46.59741" lon="5.87105">
        <ele>814.3740234</ele>
        <time>2011-08-17T09:31:26Z</time>
      </trkpt>
      <trkpt lat="46.59743" lon="5.87098">
        <ele>813.8933105</ele>
        <time>2011-08-17T09:31:28Z</time>
      </trkpt>
      <trkpt lat="46.59737" lon="5.87084">
        <ele>814.3740234</ele>
        <time>2011-08-17T09:31:33Z</time>
      </trkpt>
      <trkpt lat="46.59729" lon="5.87067">
        <ele>813.8933105</ele>
        <time>2011-08-17T09:31:39Z</time>
      </trkpt>
      <trkpt lat="46.59724" lon="5.87058">
        <ele>813.4128418</ele>
        <time>2011-08-17T09:31:42Z</time>
      </trkpt>
      <trkpt lat="46.59719" lon="5.87046">
        <ele>812.9321289</ele>
        <time>2011-08-17T09:31:46Z</time>
      </trkpt>
      <trkpt lat="46.59707" lon="5.87026">
        <ele>811.9707031</ele>
        <time>2011-08-17T09:31:53Z</time>
      </trkpt>
      <trkpt lat="46.59701" lon="5.8701">
        <ele>811.4899902</ele>
        <time>2011-08-17T09:31:58Z</time>
      </trkpt>
      <trkpt lat="46.59693" lon="5.86994">
        <ele>809.5673828</ele>
        <time>2011-08-17T09:32:03Z</time>
      </trkpt>
      <trkpt lat="46.59684" lon="5.86973">
        <ele>807.6447754</ele>
        <time>2011-08-17T09:32:09Z</time>
      </trkpt>
      <trkpt lat="46.59675" lon="5.86953">
        <ele>806.6833496</ele>
        <time>2011-08-17T09:32:15Z</time>
      </trkpt>
      <trkpt lat="46.59668" lon="5.86938">
        <ele>807.1640625</ele>
        <time>2011-08-17T09:32:20Z</time>
      </trkpt>
      <trkpt lat="46.59662" lon="5.86925">
        <ele>808.605957</ele>
        <time>2011-08-17T09:32:24Z</time>
      </trkpt>
      <trkpt lat="46.59657" lon="5.86909">
        <ele>809.0866699</ele>
        <time>2011-08-17T09:32:29Z</time>
      </trkpt>
      <trkpt lat="46.59651" lon="5.86893">
        <ele>810.5285645</ele>
        <time>2011-08-17T09:32:34Z</time>
      </trkpt>
      <trkpt lat="46.59643" lon="5.86875">
        <ele>811.4899902</ele>
        <time>2011-08-17T09:32:40Z</time>
      </trkpt>
      <trkpt lat="46.59636" lon="5.8686">
        <ele>815.3354492</ele>
        <time>2011-08-17T09:32:45Z</time>
      </trkpt>
      <trkpt lat="46.59635" lon="5.86857">
        <ele>815.8161621</ele>
        <time>2011-08-17T09:32:46Z</time>
      </trkpt>
      <trkpt lat="46.59628" lon="5.86842">
        <ele>815.8161621</ele>
        <time>2011-08-17T09:32:51Z</time>
      </trkpt>
      <trkpt lat="46.59623" lon="5.86831">
        <ele>814.3740234</ele>
        <time>2011-08-17T09:32:55Z</time>
      </trkpt>
      <trkpt lat="46.59617" lon="5.86815">
        <ele>813.8933105</ele>
        <time>2011-08-17T09:33:00Z</time>
      </trkpt>
      <trkpt lat="46.59608" lon="5.86793">
        <ele>813.8933105</ele>
        <time>2011-08-17T09:33:06Z</time>
      </trkpt>
      <trkpt lat="46.59602" lon="5.86778">
        <ele>811.0092773</ele>
        <time>2011-08-17T09:33:11Z</time>
      </trkpt>
      <trkpt lat="46.59594" lon="5.86764">
        <ele>809.0866699</ele>
        <time>2011-08-17T09:33:16Z</time>
      </trkpt>
      <trkpt lat="46.59589" lon="5.86748">
        <ele>808.605957</ele>
        <time>2011-08-17T09:33:21Z</time>
      </trkpt>
      <trkpt lat="46.59584" lon="5.86727">
        <ele>808.605957</ele>
        <time>2011-08-17T09:33:27Z</time>
      </trkpt>
      <trkpt lat="46.59581" lon="5.86707">
        <ele>807.6447754</ele>
        <time>2011-08-17T09:33:32Z</time>
      </trkpt>
      <trkpt lat="46.59583" lon="5.86695">
        <ele>807.6447754</ele>
        <time>2011-08-17T09:33:35Z</time>
      </trkpt>
      <trkpt lat="46.59593" lon="5.86698">
        <ele>805.722168</ele>
        <time>2011-08-17T09:33:39Z</time>
      </trkpt>
      <trkpt lat="46.59601" lon="5.86705">
        <ele>802.8381348</ele>
        <time>2011-08-17T09:33:42Z</time>
      </trkpt>
      <trkpt lat="46.59615" lon="5.86698">
        <ele>797.5510254</ele>
        <time>2011-08-17T09:33:48Z</time>
      </trkpt>
      <trkpt lat="46.59621" lon="5.86689">
        <ele>796.5898438</ele>
        <time>2011-08-17T09:33:51Z</time>
      </trkpt>
      <trkpt lat="46.59627" lon="5.86676">
        <ele>794.1862793</ele>
        <time>2011-08-17T09:33:55Z</time>
      </trkpt>
      <trkpt lat="46.59629" lon="5.86674">
        <ele>793.2248535</ele>
        <time>2011-08-17T09:33:56Z</time>
      </trkpt>
      <trkpt lat="46.59635" lon="5.86661">
        <ele>792.7443848</ele>
        <time>2011-08-17T09:34:00Z</time>
      </trkpt>
      <trkpt lat="46.59639" lon="5.8664">
        <ele>793.2248535</ele>
        <time>2011-08-17T09:34:05Z</time>
      </trkpt>
      <trkpt lat="46.59641" lon="5.86633">
        <ele>794.1862793</ele>
        <time>2011-08-17T09:34:07Z</time>
      </trkpt>
      <trkpt lat="46.59645" lon="5.86609">
        <ele>796.1091309</ele>
        <time>2011-08-17T09:34:13Z</time>
      </trkpt>
      <trkpt lat="46.59649" lon="5.86592">
        <ele>794.666748</ele>
        <time>2011-08-17T09:34:18Z</time>
      </trkpt>
      <trkpt lat="46.59655" lon="5.86574">
        <ele>791.782959</ele>
        <time>2011-08-17T09:34:23Z</time>
      </trkpt>
      <trkpt lat="46.59659" lon="5.86556">
        <ele>790.8215332</ele>
        <time>2011-08-17T09:34:28Z</time>
      </trkpt>
      <trkpt lat="46.59661" lon="5.86536">
        <ele>791.782959</ele>
        <time>2011-08-17T09:34:33Z</time>
      </trkpt>
      <trkpt lat="46.59662" lon="5.86516">
        <ele>790.8215332</ele>
        <time>2011-08-17T09:34:38Z</time>
      </trkpt>
      <trkpt lat="46.59664" lon="5.86497">
        <ele>789.8603516</ele>
        <time>2011-08-17T09:34:43Z</time>
      </trkpt>
      <trkpt lat="46.59665" lon="5.86478">
        <ele>788.8991699</ele>
        <time>2011-08-17T09:34:48Z</time>
      </trkpt>
      <trkpt lat="46.59667" lon="5.86471">
        <ele>788.8991699</ele>
        <time>2011-08-17T09:34:50Z</time>
      </trkpt>
      <trkpt lat="46.59672" lon="5.86443">
        <ele>789.8603516</ele>
        <time>2011-08-17T09:34:57Z</time>
      </trkpt>
      <trkpt lat="46.5968" lon="5.86427">
        <ele>788.418457</ele>
        <time>2011-08-17T09:35:03Z</time>
      </trkpt>
      <trkpt lat="46.59692" lon="5.86415">
        <ele>786.4958496</ele>
        <time>2011-08-17T09:35:09Z</time>
      </trkpt>
      <trkpt lat="46.59703" lon="5.86411">
        <ele>787.4570313</ele>
        <time>2011-08-17T09:35:14Z</time>
      </trkpt>
      <trkpt lat="46.59717" lon="5.86408">
        <ele>787.4570313</ele>
        <time>2011-08-17T09:35:20Z</time>
      </trkpt>
      <trkpt lat="46.59731" lon="5.86402">
        <ele>786.4958496</ele>
        <time>2011-08-17T09:35:26Z</time>
      </trkpt>
      <trkpt lat="46.59741" lon="5.86398">
        <ele>786.9763184</ele>
        <time>2011-08-17T09:35:30Z</time>
      </trkpt>
      <trkpt lat="46.59753" lon="5.86392">
        <ele>786.9763184</ele>
        <time>2011-08-17T09:35:35Z</time>
      </trkpt>
      <trkpt lat="46.59767" lon="5.86387">
        <ele>786.4958496</ele>
        <time>2011-08-17T09:35:41Z</time>
      </trkpt>
      <trkpt lat="46.5978" lon="5.86383">
        <ele>787.9377441</ele>
        <time>2011-08-17T09:35:46Z</time>
      </trkpt>
      <trkpt lat="46.5979" lon="5.86382">
        <ele>787.9377441</ele>
        <time>2011-08-17T09:35:51Z</time>
      </trkpt>
      <trkpt lat="46.598" lon="5.86378">
        <ele>787.9377441</ele>
        <time>2011-08-17T09:35:58Z</time>
      </trkpt>
      <trkpt lat="46.59804" lon="5.86377">
        <ele>787.9377441</ele>
        <time>2011-08-17T09:36:01Z</time>
      </trkpt>
    </trkseg>
  </trk>
</gpx>